﻿<?xml version="1.0" encoding="utf-8"?><gpx creator="Garmin Desktop App" version="1.1" xsi:schemaLocation="http://www.topografix.com/GPX/1/1 http://www.topografix.com/GPX/1/1/gpx.xsd http://www.garmin.com/xmlschemas/WaypointExtension/v1 http://www8.garmin.com/xmlschemas/WaypointExtensionv1.xsd http://www.garmin.com/xmlschemas/TrackPointExtension/v1 http://www.garmin.com/xmlschemas/TrackPointExtensionv1.xsd http://www.garmin.com/xmlschemas/GpxExtensions/v3 http://www8.garmin.com/xmlschemas/GpxExtensionsv3.xsd http://www.garmin.com/xmlschemas/ActivityExtension/v1 http://www8.garmin.com/xmlschemas/ActivityExtensionv1.xsd http://www.garmin.com/xmlschemas/AdventuresExtensions/v1 http://www8.garmin.com/xmlschemas/AdventuresExtensionv1.xsd http://www.garmin.com/xmlschemas/PressureExtension/v1 http://www.garmin.com/xmlschemas/PressureExtensionv1.xsd http://www.garmin.com/xmlschemas/TripExtensions/v1 http://www.garmin.com/xmlschemas/TripExtensionsv1.xsd http://www.garmin.com/xmlschemas/TripMetaDataExtensions/v1 http://www.garmin.com/xmlschemas/TripMetaDataExtensionsv1.xsd http://www.garmin.com/xmlschemas/ViaPointTransportationModeExtensions/v1 http://www.garmin.com/xmlschemas/ViaPointTransportationModeExtensionsv1.xsd http://www.garmin.com/xmlschemas/CreationTimeExtension/v1 http://www.garmin.com/xmlschemas/CreationTimeExtensionsv1.xsd http://www.garmin.com/xmlschemas/AccelerationExtension/v1 http://www.garmin.com/xmlschemas/AccelerationExtensionv1.xsd http://www.garmin.com/xmlschemas/PowerExtension/v1 http://www.garmin.com/xmlschemas/PowerExtensionv1.xsd http://www.garmin.com/xmlschemas/VideoExtension/v1 http://www.garmin.com/xmlschemas/VideoExtensionv1.xsd" xmlns="http://www.topografix.com/GPX/1/1" xmlns:xsi="http://www.w3.org/2001/XMLSchema-instance" xmlns:wptx1="http://www.garmin.com/xmlschemas/WaypointExtension/v1" xmlns:gpxtrx="http://www.garmin.com/xmlschemas/GpxExtensions/v3" xmlns:gpxtpx="http://www.garmin.com/xmlschemas/TrackPointExtension/v1" xmlns:gpxx="http://www.garmin.com/xmlschemas/GpxExtensions/v3" xmlns:trp="http://www.garmin.com/xmlschemas/TripExtensions/v1" xmlns:adv="http://www.garmin.com/xmlschemas/AdventuresExtensions/v1" xmlns:prs="http://www.garmin.com/xmlschemas/PressureExtension/v1" xmlns:tmd="http://www.garmin.com/xmlschemas/TripMetaDataExtensions/v1" xmlns:vptm="http://www.garmin.com/xmlschemas/ViaPointTransportationModeExtensions/v1" xmlns:ctx="http://www.garmin.com/xmlschemas/CreationTimeExtension/v1" xmlns:gpxacc="http://www.garmin.com/xmlschemas/AccelerationExtension/v1" xmlns:gpxpx="http://www.garmin.com/xmlschemas/PowerExtension/v1" xmlns:vidx1="http://www.garmin.com/xmlschemas/VideoExtension/v1">

  <metadata>
    <link href="http://www.garmin.com">
      <text>Garmin International</text>
    </link>
    <time>2025-08-08T13:52:19Z</time>
    <bounds maxlat="51.45169579423964" maxlon="6.633481923490763" minlat="51.376367211341858" minlon="6.529141142964363" />
  </metadata>

  <trk>
    <name>MJH zum Elfrather See ca. 34,5km #1</name>
    <extensions>
      <gpxx:TrackExtension>
        <gpxx:DisplayColor>Red</gpxx:DisplayColor>
      </gpxx:TrackExtension>
    </extensions>
    <trkseg>
      <trkpt lat="51.448872350156307" lon="6.582172103226185">
        <ele>26.95703125</ele>
      </trkpt>
      <trkpt lat="51.448937058448792" lon="6.581856524571776">
        <ele>27</ele>
      </trkpt>
      <trkpt lat="51.449035461992025" lon="6.581652760505676">
        <ele>27</ele>
      </trkpt>
      <trkpt lat="51.449183821678162" lon="6.581273898482323">
        <ele>27.74609375</ele>
      </trkpt>
      <trkpt lat="51.449321452528238" lon="6.581004168838263">
        <ele>27.75390625</ele>
      </trkpt>
      <trkpt lat="51.449181390926242" lon="6.580904172733426">
        <ele>27.9765625</ele>
      </trkpt>
      <trkpt lat="51.449041832238436" lon="6.580727063119412">
        <ele>27.98828125</ele>
      </trkpt>
      <trkpt lat="51.448754500597715" lon="6.580416345968843">
        <ele>28</ele>
      </trkpt>
      <trkpt lat="51.448270948603749" lon="6.580115770921111">
        <ele>28</ele>
      </trkpt>
      <trkpt lat="51.447938354685903" lon="6.579890884459019">
        <ele>28</ele>
      </trkpt>
      <trkpt lat="51.4476552978158" lon="6.579652670770884">
        <ele>28</ele>
      </trkpt>
      <trkpt lat="51.447586985304952" lon="6.579583268612623">
        <ele>28</ele>
      </trkpt>
      <trkpt lat="51.447559576481581" lon="6.579385874792934">
        <ele>28</ele>
      </trkpt>
      <trkpt lat="51.44756686873734" lon="6.579230893403292">
        <ele>28</ele>
      </trkpt>
      <trkpt lat="51.447581620886922" lon="6.579090496525168">
        <ele>28</ele>
      </trkpt>
      <trkpt lat="51.447610035538673" lon="6.57896401360631">
        <ele>28</ele>
      </trkpt>
      <trkpt lat="51.447613891214132" lon="6.57876318320632">
        <ele>28.21484375</ele>
      </trkpt>
      <trkpt lat="51.447199825197458" lon="6.578493034467101">
        <ele>78.140310999999997</ele>
        <time>2022-04-13T11:57:58Z</time>
      </trkpt>
      <trkpt lat="51.446807216852903" lon="6.578109059482813">
        <ele>78.002347</ele>
        <time>2022-04-13T11:58:00Z</time>
      </trkpt>
      <trkpt lat="51.446576630696654" lon="6.578016523271799">
        <ele>77.861564000000001</ele>
        <time>2022-04-13T11:58:02Z</time>
      </trkpt>
      <trkpt lat="51.446459284052253" lon="6.577967992052436">
        <ele>77.724186000000003</ele>
        <time>2022-04-13T11:58:04Z</time>
      </trkpt>
      <trkpt lat="51.445085490122437" lon="6.577819129452109">
        <ele>77.595699999999994</ele>
        <time>2022-04-13T11:58:06Z</time>
      </trkpt>
      <trkpt lat="51.444942830130458" lon="6.577827427536249">
        <ele>77.484812000000005</ele>
        <time>2022-04-13T11:58:08Z</time>
      </trkpt>
      <trkpt lat="51.44420656375587" lon="6.577609078958631">
        <ele>77.354753000000002</ele>
        <time>2022-04-13T11:58:11Z</time>
      </trkpt>
      <trkpt lat="51.442832015454769" lon="6.577045731246471">
        <ele>77.221449000000007</ele>
        <time>2022-04-13T11:58:13Z</time>
      </trkpt>
      <trkpt lat="51.442430522292852" lon="6.576828556135297">
        <ele>77.075851</ele>
        <time>2022-04-13T11:58:15Z</time>
      </trkpt>
      <trkpt lat="51.442366316914558" lon="6.577066937461495">
        <ele>76.913068999999993</ele>
        <time>2022-04-13T11:58:17Z</time>
      </trkpt>
      <trkpt lat="51.442298674955964" lon="6.577344294637442">
        <ele>76.697485999999998</ele>
        <time>2022-04-13T11:58:19Z</time>
      </trkpt>
      <trkpt lat="51.442239582538605" lon="6.577566750347614">
        <ele>76.574427</ele>
        <time>2022-04-13T11:58:20Z</time>
      </trkpt>
      <trkpt lat="51.442168587818742" lon="6.577798258513212">
        <ele>76.454306000000003</ele>
        <time>2022-04-13T11:58:21Z</time>
      </trkpt>
      <trkpt lat="51.442103795707226" lon="6.578029012307525">
        <ele>76.305345000000003</ele>
        <time>2022-04-13T11:58:22Z</time>
      </trkpt>
      <trkpt lat="51.442029029130936" lon="6.578239984810352">
        <ele>76.179212000000007</ele>
        <time>2022-04-13T11:58:23Z</time>
      </trkpt>
      <trkpt lat="51.441892152652144" lon="6.57832246273756">
        <ele>75.956024999999997</ele>
        <time>2022-04-13T11:58:25Z</time>
      </trkpt>
      <trkpt lat="51.441720826551318" lon="6.578395552933216">
        <ele>75.772339000000002</ele>
        <time>2022-04-13T11:58:27Z</time>
      </trkpt>
      <trkpt lat="51.441588811576366" lon="6.578487418591976">
        <ele>75.601050999999998</ele>
        <time>2022-04-13T11:58:29Z</time>
      </trkpt>
      <trkpt lat="51.441475488245487" lon="6.578577188774943">
        <ele>75.422494999999998</ele>
        <time>2022-04-13T11:58:31Z</time>
      </trkpt>
      <trkpt lat="51.441378761082888" lon="6.57863418571651">
        <ele>75.247997999999995</ele>
        <time>2022-04-13T11:58:33Z</time>
      </trkpt>
      <trkpt lat="51.441239872947335" lon="6.578719094395638">
        <ele>75.063974000000002</ele>
        <time>2022-04-13T11:58:35Z</time>
      </trkpt>
      <trkpt lat="51.441144738346338" lon="6.578778857365251">
        <ele>74.895838999999995</ele>
        <time>2022-04-13T11:58:37Z</time>
      </trkpt>
      <trkpt lat="51.441055973991752" lon="6.578861000016332">
        <ele>74.726207000000002</ele>
        <time>2022-04-13T11:58:39Z</time>
      </trkpt>
      <trkpt lat="51.440941980108619" lon="6.578927971422672">
        <ele>74.558369999999996</ele>
        <time>2022-04-13T11:58:41Z</time>
      </trkpt>
      <trkpt lat="51.440819017589092" lon="6.578994020819664">
        <ele>74.379075</ele>
        <time>2022-04-13T11:58:43Z</time>
      </trkpt>
      <trkpt lat="51.440716003999114" lon="6.579067027196288">
        <ele>74.223410999999999</ele>
        <time>2022-04-13T11:58:45Z</time>
      </trkpt>
      <trkpt lat="51.440604021772742" lon="6.579120000824332">
        <ele>74.061985000000007</ele>
        <time>2022-04-13T11:58:47Z</time>
      </trkpt>
      <trkpt lat="51.440498996526003" lon="6.579186972230673">
        <ele>74.033698000000001</ele>
        <time>2022-04-13T11:58:49Z</time>
      </trkpt>
      <trkpt lat="51.44047049805522" lon="6.579242460429668">
        <ele>74.047205000000005</ele>
        <time>2022-04-13T11:58:51Z</time>
      </trkpt>
      <trkpt lat="51.440410232171416" lon="6.579280011355877">
        <ele>74.059669</ele>
        <time>2022-04-13T11:58:53Z</time>
      </trkpt>
      <trkpt lat="51.440318617969751" lon="6.579405907541513">
        <ele>74.073897000000002</ele>
        <time>2022-04-13T11:58:56Z</time>
      </trkpt>
      <trkpt lat="51.440248629078269" lon="6.579483104869723">
        <ele>74.087549999999993</ele>
        <time>2022-04-13T11:59:04Z</time>
      </trkpt>
      <trkpt lat="51.440067663788795" lon="6.579680666327477">
        <ele>74.175414000000004</ele>
        <time>2022-04-13T11:59:17Z</time>
      </trkpt>
      <trkpt lat="51.439813608303666" lon="6.579944025725126">
        <ele>74.211006999999995</ele>
        <time>2022-04-13T11:59:21Z</time>
      </trkpt>
      <trkpt lat="51.439683269709349" lon="6.580058857798576">
        <ele>74.245580000000004</ele>
        <time>2022-04-13T11:59:25Z</time>
      </trkpt>
      <trkpt lat="51.438994109630585" lon="6.580467307940126">
        <ele>74.115780999999998</ele>
        <time>2022-04-13T11:59:31Z</time>
      </trkpt>
      <trkpt lat="51.438611643388867" lon="6.580671910196543">
        <ele>74.004780999999994</ele>
        <time>2022-04-13T11:59:35Z</time>
      </trkpt>
      <trkpt lat="51.437950730323792" lon="6.580869136378169">
        <ele>73.742384000000001</ele>
        <time>2022-04-13T11:59:45Z</time>
      </trkpt>
      <trkpt lat="51.437739422544837" lon="6.580883888527751">
        <ele>73.465895000000003</ele>
        <time>2022-04-13T12:00:01Z</time>
      </trkpt>
      <trkpt lat="51.437451420351863" lon="6.58091607503593">
        <ele>73.386915999999999</ele>
        <time>2022-04-13T12:00:21Z</time>
      </trkpt>
      <trkpt lat="51.436532596126199" lon="6.58095714636147">
        <ele>73.381870000000006</ele>
        <time>2022-04-13T12:00:23Z</time>
      </trkpt>
      <trkpt lat="51.435969583690166" lon="6.581112546846271">
        <ele>73.376633999999996</ele>
        <time>2022-04-13T12:00:25Z</time>
      </trkpt>
      <trkpt lat="51.43516500480473" lon="6.581332990899682">
        <ele>73.297723000000005</ele>
        <time>2022-04-13T12:00:39Z</time>
      </trkpt>
      <trkpt lat="51.433849968016148" lon="6.581773040816188">
        <ele>73.010548999999997</ele>
        <time>2022-04-13T12:01:03Z</time>
      </trkpt>
      <trkpt lat="51.433734968304634" lon="6.581815034151077">
        <ele>72.985443000000004</ele>
        <time>2022-04-13T12:01:05Z</time>
      </trkpt>
      <trkpt lat="51.433324003592134" lon="6.581906983628869">
        <ele>72.927193000000003</ele>
        <time>2022-04-13T12:01:13Z</time>
      </trkpt>
      <trkpt lat="51.433215960860252" lon="6.581917963922024">
        <ele>72.913550000000001</ele>
        <time>2022-04-13T12:01:15Z</time>
      </trkpt>
      <trkpt lat="51.433101966977119" lon="6.581932967528701">
        <ele>72.899129000000002</ele>
        <time>2022-04-13T12:01:17Z</time>
      </trkpt>
      <trkpt lat="51.432984033599496" lon="6.581944031640887">
        <ele>72.884225999999998</ele>
        <time>2022-04-13T12:01:19Z</time>
      </trkpt>
      <trkpt lat="51.432882025837898" lon="6.581969009712338">
        <ele>72.871217000000001</ele>
        <time>2022-04-13T12:01:21Z</time>
      </trkpt>
      <trkpt lat="51.431079916656017" lon="6.582383243367076">
        <ele>73.138767999999999</ele>
        <time>2022-04-13T12:02:01Z</time>
      </trkpt>
      <trkpt lat="51.43067691475153" lon="6.582651799544692">
        <ele>73.173012999999997</ele>
        <time>2022-04-13T12:02:03Z</time>
      </trkpt>
      <trkpt lat="51.430416321381927" lon="6.582881379872561">
        <ele>73.299100999999993</ele>
        <time>2022-04-13T12:02:05Z</time>
      </trkpt>
      <trkpt lat="51.430068053305149" lon="6.583120683208108">
        <ele>73.457503000000003</ele>
        <time>2022-04-13T12:02:07Z</time>
      </trkpt>
      <trkpt lat="51.429611407220364" lon="6.58376382663846">
        <ele>75.160831000000002</ele>
        <time>2022-04-13T12:02:47Z</time>
      </trkpt>
      <trkpt lat="51.429168255999684" lon="6.584337567910552">
        <ele>75.172218000000001</ele>
        <time>2022-04-13T12:02:49Z</time>
      </trkpt>
      <trkpt lat="51.428603399544954" lon="6.585225462913513">
        <ele>75.183645999999996</ele>
        <time>2022-04-13T12:02:51Z</time>
      </trkpt>
      <trkpt lat="51.428310954943299" lon="6.585705243051052">
        <ele>75.195982000000001</ele>
        <time>2022-04-13T12:02:53Z</time>
      </trkpt>
      <trkpt lat="51.428144490346313" lon="6.585938595235348">
        <ele>75.208095999999998</ele>
        <time>2022-04-13T12:02:55Z</time>
      </trkpt>
      <trkpt lat="51.427783146500587" lon="6.586410328745842">
        <ele>75.268679000000006</ele>
        <time>2022-04-13T12:03:03Z</time>
      </trkpt>
      <trkpt lat="51.427580052986741" lon="6.586648877710104">
        <ele>75.381771000000001</ele>
        <time>2022-04-13T12:03:05Z</time>
      </trkpt>
      <trkpt lat="51.426717638969421" lon="6.587831396609545">
        <ele>76.391870999999995</ele>
        <time>2022-04-13T12:03:23Z</time>
      </trkpt>
      <trkpt lat="51.425875090062618" lon="6.589058758690953">
        <ele>77.048817999999997</ele>
        <time>2022-04-13T12:03:37Z</time>
      </trkpt>
      <trkpt lat="51.425649700686336" lon="6.590348146855831">
        <ele>76.998638</ele>
        <time>2022-04-13T12:03:43Z</time>
      </trkpt>
      <trkpt lat="51.425741985440254" lon="6.590416040271521">
        <ele>76.872625999999997</ele>
        <time>2022-04-13T12:03:59Z</time>
      </trkpt>
      <trkpt lat="51.425837036222219" lon="6.590513018891215">
        <ele>76.856660000000005</ele>
        <time>2022-04-13T12:04:01Z</time>
      </trkpt>
      <trkpt lat="51.425933009013534" lon="6.5906329639256">
        <ele>76.839404999999999</ele>
        <time>2022-04-13T12:04:03Z</time>
      </trkpt>
      <trkpt lat="51.42603300511837" lon="6.590732960030437">
        <ele>76.822699</ele>
        <time>2022-04-13T12:04:05Z</time>
      </trkpt>
      <trkpt lat="51.426120009273291" lon="6.590831028297544">
        <ele>76.818162000000001</ele>
        <time>2022-04-13T12:04:07Z</time>
      </trkpt>
      <trkpt lat="51.426218999549747" lon="6.590919038280845">
        <ele>76.846545000000006</ele>
        <time>2022-04-13T12:04:09Z</time>
      </trkpt>
      <trkpt lat="51.426314972341061" lon="6.591006964445114">
        <ele>76.874272000000005</ele>
        <time>2022-04-13T12:04:11Z</time>
      </trkpt>
      <trkpt lat="51.426418991759419" lon="6.591096986085177">
        <ele>76.903904999999995</ele>
        <time>2022-04-13T12:04:13Z</time>
      </trkpt>
      <trkpt lat="51.426517982035875" lon="6.591184996068478">
        <ele>76.932287000000002</ele>
        <time>2022-04-13T12:04:15Z</time>
      </trkpt>
      <trkpt lat="51.426615966483951" lon="6.59129798412323">
        <ele>76.962553</ele>
        <time>2022-04-13T12:04:17Z</time>
      </trkpt>
      <trkpt lat="51.426704479381442" lon="6.591434273868799">
        <ele>76.993325999999996</ele>
        <time>2022-04-13T12:04:19Z</time>
      </trkpt>
      <trkpt lat="51.426764326170087" lon="6.591570815071464">
        <ele>77.025492999999997</ele>
        <time>2022-04-13T12:04:21Z</time>
      </trkpt>
      <trkpt lat="51.426854599267244" lon="6.591692855581641">
        <ele>77.056403000000003</ele>
        <time>2022-04-13T12:04:23Z</time>
      </trkpt>
      <trkpt lat="51.426936825737357" lon="6.591826798394322">
        <ele>77.088192000000006</ele>
        <time>2022-04-13T12:04:25Z</time>
      </trkpt>
      <trkpt lat="51.427040174603462" lon="6.591941881924868">
        <ele>77.120763999999994</ele>
        <time>2022-04-13T12:04:27Z</time>
      </trkpt>
      <trkpt lat="51.427155341953039" lon="6.592154782265425">
        <ele>77.149715999999998</ele>
        <time>2022-04-13T12:04:29Z</time>
      </trkpt>
      <trkpt lat="51.427499251440167" lon="6.59265048801899">
        <ele>76.926326000000003</ele>
        <time>2022-04-13T12:04:41Z</time>
      </trkpt>
      <trkpt lat="51.427584746852517" lon="6.592888701707125">
        <ele>76.622388000000001</ele>
        <time>2022-04-13T12:04:45Z</time>
      </trkpt>
      <trkpt lat="51.427557673305273" lon="6.593128424137831">
        <ele>76.428717000000006</ele>
        <time>2022-04-13T12:04:47Z</time>
      </trkpt>
      <trkpt lat="51.427370756864548" lon="6.593402596190572">
        <ele>76.228331999999995</ele>
        <time>2022-04-13T12:04:49Z</time>
      </trkpt>
      <trkpt lat="51.427175207063556" lon="6.593622704967856">
        <ele>76.018995000000004</ele>
        <time>2022-04-13T12:04:51Z</time>
      </trkpt>
      <trkpt lat="51.427110247313976" lon="6.593718091025949">
        <ele>75.814655999999999</ele>
        <time>2022-04-13T12:04:53Z</time>
      </trkpt>
      <trkpt lat="51.426939927041531" lon="6.593913305550814">
        <ele>75.639866999999995</ele>
        <time>2022-04-13T12:04:55Z</time>
      </trkpt>
      <trkpt lat="51.427026009187102" lon="6.594015983864665">
        <ele>75.470881000000006</ele>
        <time>2022-04-13T12:04:57Z</time>
      </trkpt>
      <trkpt lat="51.427289033308625" lon="6.594400210306048">
        <ele>75.300843</ele>
        <time>2022-04-13T12:05:00Z</time>
      </trkpt>
      <trkpt lat="51.42784433439374" lon="6.594828190281987">
        <ele>74.571501999999995</ele>
        <time>2022-04-13T12:05:18Z</time>
      </trkpt>
      <trkpt lat="51.428304417058825" lon="6.595189701765776">
        <ele>74.534558000000004</ele>
        <time>2022-04-13T12:05:20Z</time>
      </trkpt>
      <trkpt lat="51.42770703881979" lon="6.596098970621824">
        <ele>74.212310000000002</ele>
        <time>2022-04-13T12:05:44Z</time>
      </trkpt>
      <trkpt lat="51.427626991644502" lon="6.59617499448359">
        <ele>74.167657000000005</ele>
        <time>2022-04-13T12:05:48Z</time>
      </trkpt>
      <trkpt lat="51.427511991932988" lon="6.596291419118643">
        <ele>74.025807</ele>
        <time>2022-04-13T12:06:12Z</time>
      </trkpt>
      <trkpt lat="51.427368158474565" lon="6.596478167921305">
        <ele>73.959197000000003</ele>
        <time>2022-04-13T12:06:15Z</time>
      </trkpt>
      <trkpt lat="51.427182080224156" lon="6.59670271910727">
        <ele>73.909861000000006</ele>
        <time>2022-04-13T12:06:17Z</time>
      </trkpt>
      <trkpt lat="51.427112175151706" lon="6.59685367718339">
        <ele>73.862516999999997</ele>
        <time>2022-04-13T12:06:19Z</time>
      </trkpt>
      <trkpt lat="51.427026093006134" lon="6.597028439864516">
        <ele>73.811715000000007</ele>
        <time>2022-04-13T12:06:21Z</time>
      </trkpt>
      <trkpt lat="51.426907405257225" lon="6.597250979393721">
        <ele>73.757795999999999</ele>
        <time>2022-04-13T12:06:23Z</time>
      </trkpt>
      <trkpt lat="51.426802966743708" lon="6.597422305494547">
        <ele>73.711327999999995</ele>
        <time>2022-04-13T12:06:25Z</time>
      </trkpt>
      <trkpt lat="51.426516389474273" lon="6.597732435911894">
        <ele>73.330083000000002</ele>
        <time>2022-04-13T12:06:40Z</time>
      </trkpt>
      <trkpt lat="51.426208689808846" lon="6.597898984327912">
        <ele>73.303503000000006</ele>
        <time>2022-04-13T12:06:42Z</time>
      </trkpt>
      <trkpt lat="51.425933847203851" lon="6.597962770611048">
        <ele>73.277703000000002</ele>
        <time>2022-04-13T12:06:44Z</time>
      </trkpt>
      <trkpt lat="51.425644084811211" lon="6.598048182204366">
        <ele>73.252851000000007</ele>
        <time>2022-04-13T12:06:46Z</time>
      </trkpt>
      <trkpt lat="51.425402518361807" lon="6.598075171932578">
        <ele>72.986795000000001</ele>
        <time>2022-04-13T12:07:06Z</time>
      </trkpt>
      <trkpt lat="51.42505525611341" lon="6.598978405818343">
        <ele>72.955753999999999</ele>
        <time>2022-04-13T12:07:08Z</time>
      </trkpt>
      <trkpt lat="51.424833973869681" lon="6.599579220637679">
        <ele>72.925841000000005</ele>
        <time>2022-04-13T12:07:10Z</time>
      </trkpt>
      <trkpt lat="51.424720315262675" lon="6.599867306649685">
        <ele>72.913253999999995</ele>
        <time>2022-04-13T12:07:12Z</time>
      </trkpt>
      <trkpt lat="51.424587881192565" lon="6.600206941366196">
        <ele>72.903862000000004</ele>
        <time>2022-04-13T12:07:14Z</time>
      </trkpt>
      <trkpt lat="51.424273559823632" lon="6.601067930459976">
        <ele>72.894119000000003</ele>
        <time>2022-04-13T12:07:16Z</time>
      </trkpt>
      <trkpt lat="51.424107849597931" lon="6.601480739191175">
        <ele>72.800573999999997</ele>
        <time>2022-04-13T12:07:46Z</time>
      </trkpt>
      <trkpt lat="51.424036268144846" lon="6.601789360865951">
        <ele>72.813305999999997</ele>
        <time>2022-04-13T12:07:48Z</time>
      </trkpt>
      <trkpt lat="51.423958484083414" lon="6.602268218994141">
        <ele>72.826770999999994</ele>
        <time>2022-04-13T12:07:50Z</time>
      </trkpt>
      <trkpt lat="51.423887573182583" lon="6.602838858962059">
        <ele>72.839894999999999</ele>
        <time>2022-04-13T12:07:52Z</time>
      </trkpt>
      <trkpt lat="51.423849100247025" lon="6.603166926652193">
        <ele>72.853334000000004</ele>
        <time>2022-04-13T12:07:54Z</time>
      </trkpt>
      <trkpt lat="51.423674002289772" lon="6.604259088635445">
        <ele>73.046640999999994</ele>
        <time>2022-04-13T12:08:33Z</time>
      </trkpt>
      <trkpt lat="51.422519562765956" lon="6.60461163148284">
        <ele>73.052513000000005</ele>
        <time>2022-04-13T12:08:35Z</time>
      </trkpt>
      <trkpt lat="51.422425517812371" lon="6.60475580021739">
        <ele>73.058710000000005</ele>
        <time>2022-04-13T12:08:52Z</time>
      </trkpt>
      <trkpt lat="51.422253772616386" lon="6.604510629549623">
        <ele>73.065641999999997</ele>
        <time>2022-04-13T12:08:56Z</time>
      </trkpt>
      <trkpt lat="51.422084541991353" lon="6.604298315942287">
        <ele>73.073999000000001</ele>
        <time>2022-04-13T12:08:59Z</time>
      </trkpt>
      <trkpt lat="51.421870132908225" lon="6.604085499420762">
        <ele>73.081277</ele>
        <time>2022-04-13T12:09:01Z</time>
      </trkpt>
      <trkpt lat="51.421612976118922" lon="6.603905037045479">
        <ele>73.088334000000003</ele>
        <time>2022-04-13T12:09:03Z</time>
      </trkpt>
      <trkpt lat="51.421318938955665" lon="6.6037726867944">
        <ele>72.998312999999996</ele>
        <time>2022-04-13T12:09:28Z</time>
      </trkpt>
      <trkpt lat="51.420972011983395" lon="6.603657267987728">
        <ele>72.990666000000004</ele>
        <time>2022-04-13T12:09:30Z</time>
      </trkpt>
      <trkpt lat="51.420138766989112" lon="6.603612760081887">
        <ele>72.921745999999999</ele>
        <time>2022-04-13T12:09:38Z</time>
      </trkpt>
      <trkpt lat="51.419943552464247" lon="6.603595996275544">
        <ele>72.900839000000005</ele>
        <time>2022-04-13T12:09:41Z</time>
      </trkpt>
      <trkpt lat="51.419968865811825" lon="6.603778218850493">
        <ele>72.807648999999998</ele>
        <time>2022-04-13T12:09:51Z</time>
      </trkpt>
      <trkpt lat="51.419424880295992" lon="6.609166357666254">
        <ele>73.049014</ele>
        <time>2022-04-13T12:10:46Z</time>
      </trkpt>
      <trkpt lat="51.419432759284973" lon="6.609729286283255">
        <ele>73.218705999999997</ele>
        <time>2022-04-13T12:10:50Z</time>
      </trkpt>
      <trkpt lat="51.420030975714326" lon="6.612893035635352">
        <ele>74.800565000000006</ele>
        <time>2022-04-13T12:11:24Z</time>
      </trkpt>
      <trkpt lat="51.420114040374756" lon="6.613240968436003">
        <ele>75.001185000000007</ele>
        <time>2022-04-13T12:11:28Z</time>
      </trkpt>
      <trkpt lat="51.420157039538026" lon="6.613431992009282">
        <ele>75.110523000000001</ele>
        <time>2022-04-13T12:11:30Z</time>
      </trkpt>
      <trkpt lat="51.420198027044535" lon="6.613613041117787">
        <ele>75.214209999999994</ele>
        <time>2022-04-13T12:11:32Z</time>
      </trkpt>
      <trkpt lat="51.420235997065902" lon="6.613779002800584">
        <ele>75.309421999999998</ele>
        <time>2022-04-13T12:11:34Z</time>
      </trkpt>
      <trkpt lat="51.420335993170738" lon="6.614861022680998">
        <ele>75.300962999999996</ele>
        <time>2022-04-13T12:11:46Z</time>
      </trkpt>
      <trkpt lat="51.420358121395111" lon="6.615422191098332">
        <ele>75.111592000000002</ele>
        <time>2022-04-13T12:11:52Z</time>
      </trkpt>
      <trkpt lat="51.420368514955044" lon="6.615897612646222">
        <ele>74.997911999999999</ele>
        <time>2022-04-13T12:11:56Z</time>
      </trkpt>
      <trkpt lat="51.420290814712644" lon="6.616293070837855">
        <ele>74.799683000000002</ele>
        <time>2022-04-13T12:12:04Z</time>
      </trkpt>
      <trkpt lat="51.419903989881277" lon="6.616354007273912">
        <ele>74.626780999999994</ele>
        <time>2022-04-13T12:12:10Z</time>
      </trkpt>
      <trkpt lat="51.419686982408166" lon="6.61641301587224">
        <ele>74.486000000000004</ele>
        <time>2022-04-13T12:12:14Z</time>
      </trkpt>
      <trkpt lat="51.419432172551751" lon="6.616615522652865">
        <ele>74.215477000000007</ele>
        <time>2022-04-13T12:12:29Z</time>
      </trkpt>
      <trkpt lat="51.419311976060271" lon="6.616911990568042">
        <ele>74.129840999999999</ele>
        <time>2022-04-13T12:12:32Z</time>
      </trkpt>
      <trkpt lat="51.419193036854267" lon="6.617185994982719">
        <ele>73.992710000000002</ele>
        <time>2022-04-13T12:12:36Z</time>
      </trkpt>
      <trkpt lat="51.418981980532408" lon="6.617682036012411">
        <ele>73.746849999999995</ele>
        <time>2022-04-13T12:12:42Z</time>
      </trkpt>
      <trkpt lat="51.41883697360754" lon="6.618014965206385">
        <ele>73.580546999999996</ele>
        <time>2022-04-13T12:12:46Z</time>
      </trkpt>
      <trkpt lat="51.418629018589854" lon="6.618482004851103">
        <ele>73.440558999999993</ele>
        <time>2022-04-13T12:12:52Z</time>
      </trkpt>
      <trkpt lat="51.418478982523084" lon="6.618759026750922">
        <ele>73.456604999999996</ele>
        <time>2022-04-13T12:12:56Z</time>
      </trkpt>
      <trkpt lat="51.418411005288363" lon="6.618897998705506">
        <ele>73.464326999999997</ele>
        <time>2022-04-13T12:12:58Z</time>
      </trkpt>
      <trkpt lat="51.418350990861654" lon="6.619028002023697">
        <ele>73.471396999999996</ele>
        <time>2022-04-13T12:13:00Z</time>
      </trkpt>
      <trkpt lat="51.418271027505398" lon="6.619148030877113">
        <ele>73.479076000000006</ele>
        <time>2022-04-13T12:13:02Z</time>
      </trkpt>
      <trkpt lat="51.418201960623264" lon="6.619279962033033">
        <ele>73.486605999999995</ele>
        <time>2022-04-13T12:13:04Z</time>
      </trkpt>
      <trkpt lat="51.418135995045304" lon="6.619412982836366">
        <ele>73.494035999999994</ele>
        <time>2022-04-13T12:13:06Z</time>
      </trkpt>
      <trkpt lat="51.418056031689048" lon="6.619542986154556">
        <ele>73.502020000000002</ele>
        <time>2022-04-13T12:13:08Z</time>
      </trkpt>
      <trkpt lat="51.417968021705747" lon="6.61963895894587">
        <ele>73.509480999999994</ele>
        <time>2022-04-13T12:13:10Z</time>
      </trkpt>
      <trkpt lat="51.417873976752162" lon="6.619727974757552">
        <ele>73.517133000000001</ele>
        <time>2022-04-13T12:13:12Z</time>
      </trkpt>
      <trkpt lat="51.417783033102751" lon="6.619848003610969">
        <ele>73.525390999999999</ele>
        <time>2022-04-13T12:13:14Z</time>
      </trkpt>
      <trkpt lat="51.417690999805927" lon="6.619973983615637">
        <ele>73.533873</ele>
        <time>2022-04-13T12:13:16Z</time>
      </trkpt>
      <trkpt lat="51.417608018964529" lon="6.620092000812292">
        <ele>73.541647999999995</ele>
        <time>2022-04-13T12:13:18Z</time>
      </trkpt>
      <trkpt lat="51.417527971789241" lon="6.620227033272386">
        <ele>73.549789000000004</ele>
        <time>2022-04-13T12:13:20Z</time>
      </trkpt>
      <trkpt lat="51.41743996180594" lon="6.620362987741828">
        <ele>73.561329999999998</ele>
        <time>2022-04-13T12:13:22Z</time>
      </trkpt>
      <trkpt lat="51.417358992621303" lon="6.620510006323457">
        <ele>73.598337999999998</ele>
        <time>2022-04-13T12:13:24Z</time>
      </trkpt>
      <trkpt lat="51.417274000123143" lon="6.620626011863351">
        <ele>73.632105999999993</ele>
        <time>2022-04-13T12:13:26Z</time>
      </trkpt>
      <trkpt lat="51.417185990139842" lon="6.620735982432962">
        <ele>73.665861000000007</ele>
        <time>2022-04-13T12:13:28Z</time>
      </trkpt>
      <trkpt lat="51.417104015126824" lon="6.62086196243763">
        <ele>73.700220000000002</ele>
        <time>2022-04-13T12:13:30Z</time>
      </trkpt>
      <trkpt lat="51.417024973779917" lon="6.62098802626133">
        <ele>73.733929000000003</ele>
        <time>2022-04-13T12:13:32Z</time>
      </trkpt>
      <trkpt lat="51.416937969624996" lon="6.621134961023927">
        <ele>73.772164000000004</ele>
        <time>2022-04-13T12:13:34Z</time>
      </trkpt>
      <trkpt lat="51.416843002662063" lon="6.621260019019246">
        <ele>73.809342000000001</ele>
        <time>2022-04-13T12:13:36Z</time>
      </trkpt>
      <trkpt lat="51.416739989072084" lon="6.621373007073999">
        <ele>73.847098000000003</ele>
        <time>2022-04-13T12:13:38Z</time>
      </trkpt>
      <trkpt lat="51.416633035987616" lon="6.621479038149118">
        <ele>73.885148000000001</ele>
        <time>2022-04-13T12:13:40Z</time>
      </trkpt>
      <trkpt lat="51.416525999084115" lon="6.621589008718729">
        <ele>73.923599999999993</ele>
        <time>2022-04-13T12:13:42Z</time>
      </trkpt>
      <trkpt lat="51.416419968008995" lon="6.621705014258623">
        <ele>73.962423999999999</ele>
        <time>2022-04-13T12:13:44Z</time>
      </trkpt>
      <trkpt lat="51.416307985782623" lon="6.621804004535079">
        <ele>74.001114000000001</ele>
        <time>2022-04-13T12:13:46Z</time>
      </trkpt>
      <trkpt lat="51.416200026869774" lon="6.621907018125057">
        <ele>74.03913</ele>
        <time>2022-04-13T12:13:48Z</time>
      </trkpt>
      <trkpt lat="51.416096007451415" lon="6.62199703976512">
        <ele>74.074882000000002</ele>
        <time>2022-04-13T12:13:50Z</time>
      </trkpt>
      <trkpt lat="51.415982013568282" lon="6.622098963707686">
        <ele>74.089331999999999</ele>
        <time>2022-04-13T12:13:52Z</time>
      </trkpt>
      <trkpt lat="51.415865002200007" lon="6.622182028368115">
        <ele>74.052193000000003</ele>
        <time>2022-04-13T12:13:54Z</time>
      </trkpt>
      <trkpt lat="51.415754025802016" lon="6.62223500199616">
        <ele>74.018572000000006</ele>
        <time>2022-04-13T12:13:56Z</time>
      </trkpt>
      <trkpt lat="51.415639026090503" lon="6.62229903973639">
        <ele>73.983234999999993</ele>
        <time>2022-04-13T12:13:58Z</time>
      </trkpt>
      <trkpt lat="51.41552897170186" lon="6.622360982000828">
        <ele>73.949387999999999</ele>
        <time>2022-04-13T12:14:00Z</time>
      </trkpt>
      <trkpt lat="51.415426963940263" lon="6.622422002255917">
        <ele>73.917784999999995</ele>
        <time>2022-04-13T12:14:02Z</time>
      </trkpt>
      <trkpt lat="51.415325039997697" lon="6.622496014460921">
        <ele>73.885285999999994</ele>
        <time>2022-04-13T12:14:04Z</time>
      </trkpt>
      <trkpt lat="51.415214985609055" lon="6.62257899530232">
        <ele>73.849995000000007</ele>
        <time>2022-04-13T12:14:06Z</time>
      </trkpt>
      <trkpt lat="51.415120018646121" lon="6.622704975306988">
        <ele>73.814205000000001</ele>
        <time>2022-04-13T12:14:08Z</time>
      </trkpt>
      <trkpt lat="51.415018010884523" lon="6.622831961140037">
        <ele>73.776717000000005</ele>
        <time>2022-04-13T12:14:10Z</time>
      </trkpt>
      <trkpt lat="51.414919020608068" lon="6.622942015528679">
        <ele>73.741752000000005</ele>
        <time>2022-04-13T12:14:12Z</time>
      </trkpt>
      <trkpt lat="51.414821036159992" lon="6.623066989704967">
        <ele>73.705399999999997</ele>
        <time>2022-04-13T12:14:14Z</time>
      </trkpt>
      <trkpt lat="51.414727997034788" lon="6.62320202216506">
        <ele>73.668982</ele>
        <time>2022-04-13T12:14:16Z</time>
      </trkpt>
      <trkpt lat="51.414635963737965" lon="6.623311992734671">
        <ele>73.635667999999995</ele>
        <time>2022-04-13T12:14:18Z</time>
      </trkpt>
      <trkpt lat="51.414539990946651" lon="6.623420035466552">
        <ele>73.601624000000001</ele>
        <time>2022-04-13T12:14:20Z</time>
      </trkpt>
      <trkpt lat="51.414450975134969" lon="6.623538974672556">
        <ele>73.580635000000001</ele>
        <time>2022-04-13T12:14:22Z</time>
      </trkpt>
      <trkpt lat="51.414361959323287" lon="6.623661015182734">
        <ele>73.584091999999998</ele>
        <time>2022-04-13T12:14:24Z</time>
      </trkpt>
      <trkpt lat="51.414269004017115" lon="6.623751958832145">
        <ele>73.587307999999993</ele>
        <time>2022-04-13T12:14:26Z</time>
      </trkpt>
      <trkpt lat="51.414174037054181" lon="6.623852038756013">
        <ele>73.590663000000006</ele>
        <time>2022-04-13T12:14:28Z</time>
      </trkpt>
      <trkpt lat="51.414084015414119" lon="6.623968966305256">
        <ele>73.594083999999995</ele>
        <time>2022-04-13T12:14:30Z</time>
      </trkpt>
      <trkpt lat="51.413999022915959" lon="6.624074997380376">
        <ele>73.597262999999998</ele>
        <time>2022-04-13T12:14:32Z</time>
      </trkpt>
      <trkpt lat="51.413917969912291" lon="6.624189997091889">
        <ele>73.600457000000006</ele>
        <time>2022-04-13T12:14:34Z</time>
      </trkpt>
      <trkpt lat="51.413907241076231" lon="6.624247580766678">
        <ele>73.603877999999995</ele>
        <time>2022-04-13T12:14:36Z</time>
      </trkpt>
      <trkpt lat="51.413808837532997" lon="6.624366519972682">
        <ele>73.607094000000004</ele>
        <time>2022-04-13T12:14:38Z</time>
      </trkpt>
      <trkpt lat="51.413746224716306" lon="6.62445830181241">
        <ele>73.609836000000001</ele>
        <time>2022-04-13T12:14:40Z</time>
      </trkpt>
      <trkpt lat="51.413644971325994" lon="6.624539019539952">
        <ele>73.613299999999995</ele>
        <time>2022-04-13T12:14:42Z</time>
      </trkpt>
      <trkpt lat="51.413496444001794" lon="6.624748315662146">
        <ele>73.616523000000001</ele>
        <time>2022-04-13T12:14:44Z</time>
      </trkpt>
      <trkpt lat="51.413299636915326" lon="6.624986110255122">
        <ele>73.620045000000005</ele>
        <time>2022-04-13T12:14:46Z</time>
      </trkpt>
      <trkpt lat="51.412894539535046" lon="6.625478463247418">
        <ele>73.631821000000002</ele>
        <time>2022-04-13T12:15:00Z</time>
      </trkpt>
      <trkpt lat="51.412370251491666" lon="6.625696392729878">
        <ele>73.631612000000004</ele>
        <time>2022-04-13T12:15:02Z</time>
      </trkpt>
      <trkpt lat="51.411018082872033" lon="6.625600755214691">
        <ele>72.895769999999999</ele>
        <time>2022-04-13T12:15:42Z</time>
      </trkpt>
      <trkpt lat="51.41000697389245" lon="6.626063017174602">
        <ele>72.646456999999998</ele>
        <time>2022-04-13T12:15:48Z</time>
      </trkpt>
      <trkpt lat="51.407496007159352" lon="6.627487018704414">
        <ele>72.232498000000007</ele>
        <time>2022-04-13T12:16:34Z</time>
      </trkpt>
      <trkpt lat="51.405977793037891" lon="6.628250107169151">
        <ele>74.684815999999998</ele>
        <time>2022-04-13T12:17:37Z</time>
      </trkpt>
      <trkpt lat="51.406389344483614" lon="6.626700963824987">
        <ele>74.833225999999996</ele>
        <time>2022-04-13T12:17:39Z</time>
      </trkpt>
      <trkpt lat="51.406641472131014" lon="6.625912981107831">
        <ele>74.935417000000001</ele>
        <time>2022-04-13T12:17:41Z</time>
      </trkpt>
      <trkpt lat="51.406710874289274" lon="6.625574855133891">
        <ele>75.051614999999998</ele>
        <time>2022-04-13T12:17:44Z</time>
      </trkpt>
      <trkpt lat="51.406787568703294" lon="6.625334965065122">
        <ele>75.171350000000004</ele>
        <time>2022-04-13T12:17:46Z</time>
      </trkpt>
      <trkpt lat="51.406880188733339" lon="6.625126423314214">
        <ele>75.289995000000005</ele>
        <time>2022-04-13T12:17:49Z</time>
      </trkpt>
      <trkpt lat="51.406963001936674" lon="6.624786788597703">
        <ele>75.513058999999998</ele>
        <time>2022-04-13T12:17:54Z</time>
      </trkpt>
      <trkpt lat="51.408217437565327" lon="6.620583096519113">
        <ele>75.884754000000001</ele>
        <time>2022-04-13T12:18:03Z</time>
      </trkpt>
      <trkpt lat="51.405947618186474" lon="6.619184911251068">
        <ele>77.433409999999995</ele>
        <time>2022-04-13T12:18:23Z</time>
      </trkpt>
      <trkpt lat="51.403604876250029" lon="6.617613891139627">
        <ele>78.517157999999995</ele>
        <time>2022-04-13T12:18:34Z</time>
      </trkpt>
      <trkpt lat="51.403494821861386" lon="6.617873227223754">
        <ele>79.246949000000001</ele>
        <time>2022-04-13T12:18:43Z</time>
      </trkpt>
      <trkpt lat="51.403135154396296" lon="6.618309840559959">
        <ele>80.006989000000004</ele>
        <time>2022-04-13T12:18:51Z</time>
      </trkpt>
      <trkpt lat="51.402939185500145" lon="6.618998246267438">
        <ele>82.022093999999996</ele>
        <time>2022-04-13T12:19:11Z</time>
      </trkpt>
      <trkpt lat="51.402757884934545" lon="6.619827970862389">
        <ele>85.386998000000006</ele>
        <time>2022-04-13T12:19:35Z</time>
      </trkpt>
      <trkpt lat="51.401909720152617" lon="6.619496969506145">
        <ele>85.936355000000006</ele>
        <time>2022-04-13T12:19:38Z</time>
      </trkpt>
      <trkpt lat="51.401015790179372" lon="6.619195975363255">
        <ele>87.323389000000006</ele>
        <time>2022-04-13T12:19:52Z</time>
      </trkpt>
      <trkpt lat="51.40051631256938" lon="6.619054824113846">
        <ele>88.010660999999999</ele>
        <time>2022-04-13T12:20:02Z</time>
      </trkpt>
      <trkpt lat="51.399209992960095" lon="6.618545036762953">
        <ele>89.409666999999999</ele>
        <time>2022-04-13T12:20:30Z</time>
      </trkpt>
      <trkpt lat="51.399076972156763" lon="6.618512012064457">
        <ele>89.499745000000004</ele>
        <time>2022-04-13T12:20:32Z</time>
      </trkpt>
      <trkpt lat="51.398951997980475" lon="6.618480999022722">
        <ele>89.584404000000006</ele>
        <time>2022-04-13T12:20:34Z</time>
      </trkpt>
      <trkpt lat="51.398830963298678" lon="6.618448980152607">
        <ele>89.666486000000006</ele>
        <time>2022-04-13T12:20:36Z</time>
      </trkpt>
      <trkpt lat="51.398729961365461" lon="6.618419978767633">
        <ele>89.735162000000003</ele>
        <time>2022-04-13T12:20:38Z</time>
      </trkpt>
      <trkpt lat="51.398622002452612" lon="6.61839097738266">
        <ele>89.808454999999995</ele>
        <time>2022-04-13T12:20:40Z</time>
      </trkpt>
      <trkpt lat="51.398512031883001" lon="6.618357030674815">
        <ele>89.883436000000003</ele>
        <time>2022-04-13T12:20:42Z</time>
      </trkpt>
      <trkpt lat="51.398398037999868" lon="6.618330962955952">
        <ele>89.960899999999995</ele>
        <time>2022-04-13T12:20:44Z</time>
      </trkpt>
      <trkpt lat="51.398261999711394" lon="6.618289975449443">
        <ele>90.092663000000002</ele>
        <time>2022-04-13T12:20:46Z</time>
      </trkpt>
      <trkpt lat="51.3981459941715" lon="6.618256028741598">
        <ele>90.204943999999998</ele>
        <time>2022-04-13T12:20:48Z</time>
      </trkpt>
      <trkpt lat="51.398032000288367" lon="6.618215963244438">
        <ele>90.316059999999993</ele>
        <time>2022-04-13T12:20:50Z</time>
      </trkpt>
      <trkpt lat="51.397914988920093" lon="6.61817598156631">
        <ele>90.429967000000005</ele>
        <time>2022-04-13T12:20:52Z</time>
      </trkpt>
      <trkpt lat="51.397794038057327" lon="6.61813298240304">
        <ele>90.547974999999994</ele>
        <time>2022-04-13T12:20:54Z</time>
      </trkpt>
      <trkpt lat="51.397678032517433" lon="6.618104986846447">
        <ele>90.659670000000006</ele>
        <time>2022-04-13T12:20:56Z</time>
      </trkpt>
      <trkpt lat="51.39756697230041" lon="6.618063999339938">
        <ele>90.768128000000004</ele>
        <time>2022-04-13T12:20:58Z</time>
      </trkpt>
      <trkpt lat="51.397460019215941" lon="6.618013037368655">
        <ele>90.874418000000006</ele>
        <time>2022-04-13T12:21:00Z</time>
      </trkpt>
      <trkpt lat="51.397335967049003" lon="6.617980012670159">
        <ele>90.994101000000001</ele>
        <time>2022-04-13T12:21:02Z</time>
      </trkpt>
      <trkpt lat="51.39721903949976" lon="6.617942964658141">
        <ele>91.107650000000007</ele>
        <time>2022-04-13T12:21:04Z</time>
      </trkpt>
      <trkpt lat="51.397107979282737" lon="6.617900971323252">
        <ele>91.216243000000006</ele>
        <time>2022-04-13T12:21:06Z</time>
      </trkpt>
      <trkpt lat="51.397003959864378" lon="6.617853026837111">
        <ele>91.319291000000007</ele>
        <time>2022-04-13T12:21:08Z</time>
      </trkpt>
      <trkpt lat="51.396907987073064" lon="6.617796029895544">
        <ele>91.416766999999993</ele>
        <time>2022-04-13T12:21:10Z</time>
      </trkpt>
      <trkpt lat="51.396773038432002" lon="6.617739032953978">
        <ele>91.549693000000005</ele>
        <time>2022-04-13T12:21:13Z</time>
      </trkpt>
      <trkpt lat="51.396674970164895" lon="6.617700979113579">
        <ele>91.645695000000003</ele>
        <time>2022-04-13T12:21:15Z</time>
      </trkpt>
      <trkpt lat="51.396548990160227" lon="6.617658985778689">
        <ele>91.722617999999997</ele>
        <time>2022-04-13T12:21:18Z</time>
      </trkpt>
      <trkpt lat="51.396380262449384" lon="6.617604084312916">
        <ele>91.775695999999996</ele>
        <time>2022-04-13T12:21:22Z</time>
      </trkpt>
      <trkpt lat="51.396177588030696" lon="6.617680694907904">
        <ele>91.892076000000003</ele>
        <time>2022-04-13T12:21:45Z</time>
      </trkpt>
      <trkpt lat="51.395132951438427" lon="6.618040781468153">
        <ele>92.462871000000007</ele>
        <time>2022-04-13T12:22:05Z</time>
      </trkpt>
      <trkpt lat="51.394991800189018" lon="6.618095096200705">
        <ele>92.508137000000005</ele>
        <time>2022-04-13T12:22:07Z</time>
      </trkpt>
      <trkpt lat="51.394900185987353" lon="6.618136167526245">
        <ele>92.570542000000003</ele>
        <time>2022-04-13T12:22:10Z</time>
      </trkpt>
      <trkpt lat="51.394822737202048" lon="6.618198780342937">
        <ele>92.470721999999995</ele>
        <time>2022-04-13T12:22:13Z</time>
      </trkpt>
      <trkpt lat="51.394727183505893" lon="6.618271116167307">
        <ele>92.376913000000002</ele>
        <time>2022-04-13T12:22:16Z</time>
      </trkpt>
      <trkpt lat="51.394623583182693" lon="6.618321239948273">
        <ele>92.282448000000002</ele>
        <time>2022-04-13T12:22:18Z</time>
      </trkpt>
      <trkpt lat="51.394650992006063" lon="6.618482004851103">
        <ele>92.177216999999999</ele>
        <time>2022-04-13T12:22:20Z</time>
      </trkpt>
      <trkpt lat="51.394687034189701" lon="6.618670010939241">
        <ele>92.067284999999998</ele>
        <time>2022-04-13T12:22:22Z</time>
      </trkpt>
      <trkpt lat="51.39472802169621" lon="6.618831027299166">
        <ele>91.970077000000003</ele>
        <time>2022-04-13T12:22:24Z</time>
      </trkpt>
      <trkpt lat="51.394788036122918" lon="6.618980979546905">
        <ele>91.870474999999999</ele>
        <time>2022-04-13T12:22:26Z</time>
      </trkpt>
      <trkpt lat="51.394834974780679" lon="6.619138978421688">
        <ele>91.772627</ele>
        <time>2022-04-13T12:22:28Z</time>
      </trkpt>
      <trkpt lat="51.394865987822413" lon="6.619297983124852">
        <ele>91.679507000000001</ele>
        <time>2022-04-13T12:22:30Z</time>
      </trkpt>
      <trkpt lat="51.394881997257471" lon="6.619449025020003">
        <ele>91.593888000000007</ele>
        <time>2022-04-13T12:22:32Z</time>
      </trkpt>
      <trkpt lat="51.394854001700878" lon="6.619599983096123">
        <ele>91.505829000000006</ele>
        <time>2022-04-13T12:22:34Z</time>
      </trkpt>
      <trkpt lat="51.394801028072834" lon="6.619738033041358">
        <ele>91.415244000000001</ele>
        <time>2022-04-13T12:22:37Z</time>
      </trkpt>
      <trkpt lat="51.394716035574675" lon="6.619845991954207">
        <ele>91.318061999999998</ele>
        <time>2022-04-13T12:22:38Z</time>
      </trkpt>
      <trkpt lat="51.394624002277851" lon="6.619946993887425">
        <ele>91.218154999999996</ele>
        <time>2022-04-13T12:22:40Z</time>
      </trkpt>
      <trkpt lat="51.394512020051479" lon="6.620033998042345">
        <ele>91.106646999999995</ele>
        <time>2022-04-13T12:22:42Z</time>
      </trkpt>
      <trkpt lat="51.394399031996727" lon="6.620115973055363">
        <ele>90.995514</ele>
        <time>2022-04-13T12:22:44Z</time>
      </trkpt>
      <trkpt lat="51.394282020628452" lon="6.620188979431987">
        <ele>90.964472999999998</ele>
        <time>2022-04-13T12:22:46Z</time>
      </trkpt>
      <trkpt lat="51.394187305122614" lon="6.620174646377564">
        <ele>90.970139000000003</ele>
        <time>2022-04-13T12:22:48Z</time>
      </trkpt>
      <trkpt lat="51.394053529947996" lon="6.620243545621634">
        <ele>90.975679999999997</ele>
        <time>2022-04-13T12:22:50Z</time>
      </trkpt>
      <trkpt lat="51.393945403397083" lon="6.620317306369543">
        <ele>90.980936</ele>
        <time>2022-04-13T12:22:52Z</time>
      </trkpt>
      <trkpt lat="51.393863009288907" lon="6.620417973026633">
        <ele>90.986099999999993</ele>
        <time>2022-04-13T12:22:54Z</time>
      </trkpt>
      <trkpt lat="51.393753038719296" lon="6.620478993281722">
        <ele>90.991782000000001</ele>
        <time>2022-04-13T12:22:56Z</time>
      </trkpt>
      <trkpt lat="51.393659999594092" lon="6.620548982173204">
        <ele>90.996797999999998</ele>
        <time>2022-04-13T12:22:58Z</time>
      </trkpt>
      <trkpt lat="51.393485572189093" lon="6.620754171162844">
        <ele>91.001249999999999</ele>
        <time>2022-04-13T12:23:00Z</time>
      </trkpt>
      <trkpt lat="51.393002020195127" lon="6.621378622949123">
        <ele>91.039776000000003</ele>
        <time>2022-04-13T12:23:15Z</time>
      </trkpt>
      <trkpt lat="51.392690716311336" lon="6.621716581285">
        <ele>91.045704999999998</ele>
        <time>2022-04-13T12:23:17Z</time>
      </trkpt>
      <trkpt lat="51.392155112698674" lon="6.621984550729394">
        <ele>91.048017999999999</ele>
        <time>2022-04-13T12:23:21Z</time>
      </trkpt>
      <trkpt lat="51.391948582604527" lon="6.622092425823212">
        <ele>91.047985999999995</ele>
        <time>2022-04-13T12:23:23Z</time>
      </trkpt>
      <trkpt lat="51.391792595386505" lon="6.622202396392822">
        <ele>91.047955000000002</ele>
        <time>2022-04-13T12:23:25Z</time>
      </trkpt>
      <trkpt lat="51.3916408829391" lon="6.622704975306988">
        <ele>91.148007000000007</ele>
        <time>2022-04-13T12:23:53Z</time>
      </trkpt>
      <trkpt lat="51.391603583469987" lon="6.623217863962054">
        <ele>91.201188000000002</ele>
        <time>2022-04-13T12:23:55Z</time>
      </trkpt>
      <trkpt lat="51.391563434153795" lon="6.623862180858851">
        <ele>91.265373999999994</ele>
        <time>2022-04-13T12:23:57Z</time>
      </trkpt>
      <trkpt lat="51.391380876302719" lon="6.62432536482811">
        <ele>91.327053000000006</ele>
        <time>2022-04-13T12:23:59Z</time>
      </trkpt>
      <trkpt lat="51.391198234632611" lon="6.624584784731269">
        <ele>91.384331000000003</ele>
        <time>2022-04-13T12:24:01Z</time>
      </trkpt>
      <trkpt lat="51.391059430316091" lon="6.624754434451461">
        <ele>91.449189000000004</ele>
        <time>2022-04-13T12:24:04Z</time>
      </trkpt>
      <trkpt lat="51.390925152227283" lon="6.624900531023741">
        <ele>91.513153000000003</ele>
        <time>2022-04-13T12:24:06Z</time>
      </trkpt>
      <trkpt lat="51.390657601878047" lon="6.624987786635757">
        <ele>91.576521</ele>
        <time>2022-04-13T12:24:08Z</time>
      </trkpt>
      <trkpt lat="51.390058966353536" lon="6.624902961775661">
        <ele>92.114945000000006</ele>
        <time>2022-04-13T12:24:27Z</time>
      </trkpt>
      <trkpt lat="51.389956036582589" lon="6.624937998130918">
        <ele>92.156283000000002</ele>
        <time>2022-04-13T12:24:29Z</time>
      </trkpt>
      <trkpt lat="51.389848999679089" lon="6.624971022829413">
        <ele>92.199064000000007</ele>
        <time>2022-04-13T12:24:31Z</time>
      </trkpt>
      <trkpt lat="51.389735005795956" lon="6.624988960102201">
        <ele>92.244039000000001</ele>
        <time>2022-04-13T12:24:33Z</time>
      </trkpt>
      <trkpt lat="51.3896169885993" lon="6.625001030042768">
        <ele>92.290460999999993</ele>
        <time>2022-04-13T12:24:35Z</time>
      </trkpt>
      <trkpt lat="51.389413559809327" lon="6.625030785799027">
        <ele>92.334958999999998</ele>
        <time>2022-04-13T12:24:37Z</time>
      </trkpt>
      <trkpt lat="51.389319095760584" lon="6.625033635646105">
        <ele>92.416937000000004</ele>
        <time>2022-04-13T12:24:41Z</time>
      </trkpt>
      <trkpt lat="51.38916696421802" lon="6.625046040862799">
        <ele>92.467586999999995</ele>
        <time>2022-04-13T12:24:44Z</time>
      </trkpt>
      <trkpt lat="51.389064537361264" lon="6.624940512701869">
        <ele>92.517635999999996</ele>
        <time>2022-04-13T12:24:47Z</time>
      </trkpt>
      <trkpt lat="51.388843590393662" lon="6.62477245554328">
        <ele>92.603734000000003</ele>
        <time>2022-04-13T12:24:52Z</time>
      </trkpt>
      <trkpt lat="51.388696068897843" lon="6.624742699787021">
        <ele>92.607449000000003</ele>
        <time>2022-04-13T12:25:07Z</time>
      </trkpt>
      <trkpt lat="51.38804504647851" lon="6.62515458650887">
        <ele>92.595759000000001</ele>
        <time>2022-04-13T12:25:09Z</time>
      </trkpt>
      <trkpt lat="51.387356976047158" lon="6.625745007768273">
        <ele>92.499797000000001</ele>
        <time>2022-04-13T12:25:33Z</time>
      </trkpt>
      <trkpt lat="51.387275001034141" lon="6.62582497112453">
        <ele>92.488311999999993</ele>
        <time>2022-04-13T12:25:35Z</time>
      </trkpt>
      <trkpt lat="51.387152038514614" lon="6.62590803578496">
        <ele>92.472345000000004</ele>
        <time>2022-04-13T12:25:39Z</time>
      </trkpt>
      <trkpt lat="51.387055981904268" lon="6.625938965007663">
        <ele>92.462056000000004</ele>
        <time>2022-04-13T12:25:40Z</time>
      </trkpt>
      <trkpt lat="51.386936036869884" lon="6.626032004132867">
        <ele>92.482547999999994</ele>
        <time>2022-04-13T12:25:43Z</time>
      </trkpt>
      <trkpt lat="51.386338407173753" lon="6.626479765400291">
        <ele>92.682991999999999</ele>
        <time>2022-04-13T12:26:10Z</time>
      </trkpt>
      <trkpt lat="51.386173367500305" lon="6.626552185043693">
        <ele>92.699395999999993</ele>
        <time>2022-04-13T12:26:12Z</time>
      </trkpt>
      <trkpt lat="51.385922329500318" lon="6.62674211896956">
        <ele>92.718748000000005</ele>
        <time>2022-04-13T12:26:15Z</time>
      </trkpt>
      <trkpt lat="51.385867176577449" lon="6.626848485320807">
        <ele>92.732714000000001</ele>
        <time>2022-04-13T12:26:17Z</time>
      </trkpt>
      <trkpt lat="51.386035988107324" lon="6.627589026466012">
        <ele>92.747353000000004</ele>
        <time>2022-04-13T12:26:21Z</time>
      </trkpt>
      <trkpt lat="51.386085022240877" lon="6.627721041440964">
        <ele>92.756303000000003</ele>
        <time>2022-04-13T12:26:22Z</time>
      </trkpt>
      <trkpt lat="51.386166997253895" lon="6.627869987860322">
        <ele>92.767881000000003</ele>
        <time>2022-04-13T12:26:25Z</time>
      </trkpt>
      <trkpt lat="51.38622097671032" lon="6.628006026148796">
        <ele>92.777275000000003</ele>
        <time>2022-04-13T12:26:27Z</time>
      </trkpt>
      <trkpt lat="51.386292977258563" lon="6.628136029466987">
        <ele>92.787403999999995</ele>
        <time>2022-04-13T12:26:29Z</time>
      </trkpt>
      <trkpt lat="51.386358020827174" lon="6.628235019743443">
        <ele>92.795777999999999</ele>
        <time>2022-04-13T12:26:31Z</time>
      </trkpt>
      <trkpt lat="51.386432033032179" lon="6.628325041383505">
        <ele>92.804452999999995</ele>
        <time>2022-04-13T12:26:34Z</time>
      </trkpt>
      <trkpt lat="51.386528005823493" lon="6.628406010568142">
        <ele>92.814584999999994</ele>
        <time>2022-04-13T12:26:37Z</time>
      </trkpt>
      <trkpt lat="51.386604616418481" lon="6.628354880958796">
        <ele>92.823627000000002</ele>
        <time>2022-04-13T12:26:40Z</time>
      </trkpt>
      <trkpt lat="51.386835789307952" lon="6.628406178206205">
        <ele>92.835409999999996</ele>
        <time>2022-04-13T12:26:43Z</time>
      </trkpt>
      <trkpt lat="51.386929750442505" lon="6.628395700827241">
        <ele>92.845782</ele>
        <time>2022-04-13T12:26:45Z</time>
      </trkpt>
      <trkpt lat="51.386980041861534" lon="6.628399975597858">
        <ele>92.857617000000005</ele>
        <time>2022-04-13T12:26:47Z</time>
      </trkpt>
      <trkpt lat="51.387080959975719" lon="6.628390001133084">
        <ele>92.867067000000006</ele>
        <time>2022-04-13T12:26:49Z</time>
      </trkpt>
      <trkpt lat="51.387257650494576" lon="6.628389833495021">
        <ele>92.876874999999998</ele>
        <time>2022-04-13T12:26:51Z</time>
      </trkpt>
      <trkpt lat="51.387262009084225" lon="6.62850902415812">
        <ele>92.885717</ele>
        <time>2022-04-13T12:26:53Z</time>
      </trkpt>
      <trkpt lat="51.387261254712939" lon="6.628690073266625">
        <ele>92.896094000000005</ele>
        <time>2022-04-13T12:26:55Z</time>
      </trkpt>
      <trkpt lat="51.387252788990736" lon="6.628914624452591">
        <ele>92.905079000000001</ele>
        <time>2022-04-13T12:26:58Z</time>
      </trkpt>
      <trkpt lat="51.387226721271873" lon="6.62915644235909">
        <ele>92.907398999999998</ele>
        <time>2022-04-13T12:27:00Z</time>
      </trkpt>
      <trkpt lat="51.387205179780722" lon="6.629374707117677">
        <ele>92.909374999999997</ele>
        <time>2022-04-13T12:27:01Z</time>
      </trkpt>
      <trkpt lat="51.38714206404984" lon="6.629543602466583">
        <ele>92.911246000000006</ele>
        <time>2022-04-13T12:27:03Z</time>
      </trkpt>
      <trkpt lat="51.387102333828807" lon="6.629771590232849">
        <ele>92.913263000000001</ele>
        <time>2022-04-13T12:27:05Z</time>
      </trkpt>
      <trkpt lat="51.387015916407108" lon="6.629966301843524">
        <ele>92.91525</ele>
        <time>2022-04-13T12:27:07Z</time>
      </trkpt>
      <trkpt lat="51.386793963611126" lon="6.630119020119309">
        <ele>92.925314</ele>
        <time>2022-04-13T12:27:17Z</time>
      </trkpt>
      <trkpt lat="51.386592546477914" lon="6.630298811942339">
        <ele>92.927847</ele>
        <time>2022-04-13T12:27:19Z</time>
      </trkpt>
      <trkpt lat="51.386344358325005" lon="6.630442142486572">
        <ele>92.929997</ele>
        <time>2022-04-13T12:27:21Z</time>
      </trkpt>
      <trkpt lat="51.386039843782783" lon="6.630591843277216">
        <ele>92.932332000000002</ele>
        <time>2022-04-13T12:27:23Z</time>
      </trkpt>
      <trkpt lat="51.38566198758781" lon="6.63077280856669">
        <ele>92.934583000000003</ele>
        <time>2022-04-13T12:27:25Z</time>
      </trkpt>
      <trkpt lat="51.385022783651948" lon="6.631090901792049">
        <ele>92.940877999999998</ele>
        <time>2022-04-13T12:27:27Z</time>
      </trkpt>
      <trkpt lat="51.384755317121744" lon="6.631255690008402">
        <ele>93.123791999999995</ele>
        <time>2022-04-13T12:27:51Z</time>
      </trkpt>
      <trkpt lat="51.384521964937449" lon="6.631343448534608">
        <ele>93.149741000000006</ele>
        <time>2022-04-13T12:27:54Z</time>
      </trkpt>
      <trkpt lat="51.384273776784539" lon="6.631402038037777">
        <ele>93.164027000000004</ele>
        <time>2022-04-13T12:27:56Z</time>
      </trkpt>
      <trkpt lat="51.38409499078989" lon="6.631460543721914">
        <ele>93.158995000000004</ele>
        <time>2022-04-13T12:27:58Z</time>
      </trkpt>
      <trkpt lat="51.383855938911438" lon="6.63155660033226">
        <ele>93.153841</ele>
        <time>2022-04-13T12:28:00Z</time>
      </trkpt>
      <trkpt lat="51.383495684713125" lon="6.631720215082169">
        <ele>93.109414999999998</ele>
        <time>2022-04-13T12:28:17Z</time>
      </trkpt>
      <trkpt lat="51.383384205400944" lon="6.63191769272089">
        <ele>93.103852000000003</ele>
        <time>2022-04-13T12:28:19Z</time>
      </trkpt>
      <trkpt lat="51.383317988365889" lon="6.631994973868132">
        <ele>93.098614999999995</ele>
        <time>2022-04-13T12:28:21Z</time>
      </trkpt>
      <trkpt lat="51.383285969495773" lon="6.632138974964619">
        <ele>93.09402</ele>
        <time>2022-04-13T12:28:23Z</time>
      </trkpt>
      <trkpt lat="51.383243976160884" lon="6.632294040173292">
        <ele>93.088939999999994</ele>
        <time>2022-04-13T12:28:25Z</time>
      </trkpt>
      <trkpt lat="51.383208017796278" lon="6.632455978542566">
        <ele>93.083770999999999</ele>
        <time>2022-04-13T12:28:27Z</time>
      </trkpt>
      <trkpt lat="51.383187398314476" lon="6.632622191682458">
        <ele>93.077673000000004</ele>
        <time>2022-04-13T12:28:30Z</time>
      </trkpt>
      <trkpt lat="51.38320223428309" lon="6.632736185565591">
        <ele>93.089730000000003</ele>
        <time>2022-04-13T12:28:33Z</time>
      </trkpt>
      <trkpt lat="51.382918255403638" lon="6.632821848616004">
        <ele>93.100710000000007</ele>
        <time>2022-04-13T12:28:35Z</time>
      </trkpt>
      <trkpt lat="51.382700242102146" lon="6.632861662656069">
        <ele>93.112378000000007</ele>
        <time>2022-04-13T12:28:37Z</time>
      </trkpt>
      <trkpt lat="51.38242925517261" lon="6.632953612133861">
        <ele>93.123924000000002</ele>
        <time>2022-04-13T12:28:39Z</time>
      </trkpt>
      <trkpt lat="51.382206128910184" lon="6.633009351789951">
        <ele>93.137022000000002</ele>
        <time>2022-04-13T12:28:41Z</time>
      </trkpt>
      <trkpt lat="51.38155703432858" lon="6.633195010945201">
        <ele>93.245801</ele>
        <time>2022-04-13T12:28:59Z</time>
      </trkpt>
      <trkpt lat="51.381434993818402" lon="6.63321697153151">
        <ele>93.257013000000001</ele>
        <time>2022-04-13T12:29:01Z</time>
      </trkpt>
      <trkpt lat="51.381313037127256" lon="6.633255025371909">
        <ele>93.264617000000001</ele>
        <time>2022-04-13T12:29:03Z</time>
      </trkpt>
      <trkpt lat="51.381198959425092" lon="6.633289977908135">
        <ele>93.271719000000004</ele>
        <time>2022-04-13T12:29:05Z</time>
      </trkpt>
      <trkpt lat="51.381100974977016" lon="6.633316967636347">
        <ele>93.277804000000003</ele>
        <time>2022-04-13T12:29:08Z</time>
      </trkpt>
      <trkpt lat="51.380991004407406" lon="6.63334202952683">
        <ele>93.284602000000007</ele>
        <time>2022-04-13T12:29:09Z</time>
      </trkpt>
      <trkpt lat="51.380886984989047" lon="6.633356027305126">
        <ele>93.290987000000001</ele>
        <time>2022-04-13T12:29:11Z</time>
      </trkpt>
      <trkpt lat="51.380753964185715" lon="6.633371030911803">
        <ele>93.299144999999996</ele>
        <time>2022-04-13T12:29:13Z</time>
      </trkpt>
      <trkpt lat="51.380648016929626" lon="6.63338896818459">
        <ele>93.305667</ele>
        <time>2022-04-13T12:29:15Z</time>
      </trkpt>
      <trkpt lat="51.380414748564363" lon="6.633481923490763">
        <ele>93.312605000000005</ele>
        <time>2022-04-13T12:29:18Z</time>
      </trkpt>
      <trkpt lat="51.380385579541326" lon="6.633346388116479">
        <ele>93.319091999999998</ele>
        <time>2022-04-13T12:29:22Z</time>
      </trkpt>
      <trkpt lat="51.380366971716285" lon="6.633229041472077">
        <ele>93.324890999999994</ele>
        <time>2022-04-13T12:29:25Z</time>
      </trkpt>
      <trkpt lat="51.380311986431479" lon="6.633111024275422">
        <ele>93.330516000000003</ele>
        <time>2022-04-13T12:29:28Z</time>
      </trkpt>
      <trkpt lat="51.380326235666871" lon="6.632975321263075">
        <ele>93.336056999999997</ele>
        <time>2022-04-13T12:29:31Z</time>
      </trkpt>
      <trkpt lat="51.380281141027808" lon="6.632710536941886">
        <ele>93.342938000000004</ele>
        <time>2022-04-13T12:29:32Z</time>
      </trkpt>
      <trkpt lat="51.380233196541667" lon="6.632577180862427">
        <ele>93.349204</ele>
        <time>2022-04-13T12:29:34Z</time>
      </trkpt>
      <trkpt lat="51.380214923992753" lon="6.632417337968946">
        <ele>93.355577999999994</ele>
        <time>2022-04-13T12:29:36Z</time>
      </trkpt>
      <trkpt lat="51.38018349185586" lon="6.632251208648086">
        <ele>93.365448999999998</ele>
        <time>2022-04-13T12:29:38Z</time>
      </trkpt>
      <trkpt lat="51.380123058333993" lon="6.631949627771974">
        <ele>93.346114</ele>
        <time>2022-04-13T12:29:40Z</time>
      </trkpt>
      <trkpt lat="51.380083076655865" lon="6.631753658875823">
        <ele>93.327791000000005</ele>
        <time>2022-04-13T12:29:43Z</time>
      </trkpt>
      <trkpt lat="51.380052817985415" lon="6.631602868437767">
        <ele>93.309282999999994</ele>
        <time>2022-04-13T12:29:44Z</time>
      </trkpt>
      <trkpt lat="51.380016272887588" lon="6.631368007510901">
        <ele>93.291874000000007</ele>
        <time>2022-04-13T12:29:46Z</time>
      </trkpt>
      <trkpt lat="51.379988864064217" lon="6.631255438551307">
        <ele>93.277413999999993</ele>
        <time>2022-04-13T12:29:48Z</time>
      </trkpt>
      <trkpt lat="51.379763977602124" lon="6.631343029439449">
        <ele>93.258083999999997</ele>
        <time>2022-04-13T12:29:52Z</time>
      </trkpt>
      <trkpt lat="51.379612097516656" lon="6.631451742723584">
        <ele>93.241905000000003</ele>
        <time>2022-04-13T12:29:54Z</time>
      </trkpt>
      <trkpt lat="51.379357036203146" lon="6.631630947813392">
        <ele>93.225397999999998</ele>
        <time>2022-04-13T12:29:55Z</time>
      </trkpt>
      <trkpt lat="51.378662763163447" lon="6.632140232250094">
        <ele>92.808031999999997</ele>
        <time>2022-04-13T12:30:17Z</time>
      </trkpt>
      <trkpt lat="51.378309968858957" lon="6.632487997412682">
        <ele>92.741765999999998</ele>
        <time>2022-04-13T12:30:19Z</time>
      </trkpt>
      <trkpt lat="51.378109725192189" lon="6.63267994299531">
        <ele>92.672291999999999</ele>
        <time>2022-04-13T12:30:22Z</time>
      </trkpt>
      <trkpt lat="51.377672022208571" lon="6.632968029007316">
        <ele>92.334203000000002</ele>
        <time>2022-04-13T12:30:31Z</time>
      </trkpt>
      <trkpt lat="51.377485860139132" lon="6.633162489160895">
        <ele>92.272048999999996</ele>
        <time>2022-04-13T12:30:33Z</time>
      </trkpt>
      <trkpt lat="51.377294082194567" lon="6.63329953327775">
        <ele>92.213604000000004</ele>
        <time>2022-04-13T12:30:35Z</time>
      </trkpt>
      <trkpt lat="51.377143878489733" lon="6.633401121944189">
        <ele>92.063743000000002</ele>
        <time>2022-04-13T12:30:39Z</time>
      </trkpt>
      <trkpt lat="51.376944640651345" lon="6.633438756689429">
        <ele>91.962701999999993</ele>
        <time>2022-04-13T12:30:45Z</time>
      </trkpt>
      <trkpt lat="51.376798879355192" lon="6.63343196734786">
        <ele>91.853397999999999</ele>
        <time>2022-04-13T12:30:53Z</time>
      </trkpt>
      <trkpt lat="51.376663343980908" lon="6.63330833427608">
        <ele>91.794691999999998</ele>
        <time>2022-04-13T12:30:57Z</time>
      </trkpt>
      <trkpt lat="51.376522611826658" lon="6.633115969598293">
        <ele>91.727074000000002</ele>
        <time>2022-04-13T12:31:01Z</time>
      </trkpt>
      <trkpt lat="51.376428483054042" lon="6.632702490314841">
        <ele>91.567425</ele>
        <time>2022-04-13T12:31:11Z</time>
      </trkpt>
      <trkpt lat="51.376367211341858" lon="6.631969325244427">
        <ele>90.917443000000006</ele>
        <time>2022-04-13T12:31:16Z</time>
      </trkpt>
      <trkpt lat="51.376374335959554" lon="6.631559953093529">
        <ele>90.479325000000003</ele>
        <time>2022-04-13T12:31:19Z</time>
      </trkpt>
      <trkpt lat="51.376471063122153" lon="6.631418131291866">
        <ele>90.161462999999998</ele>
        <time>2022-04-13T12:31:23Z</time>
      </trkpt>
      <trkpt lat="51.376582961529493" lon="6.631257031112909">
        <ele>89.842477000000002</ele>
        <time>2022-04-13T12:31:26Z</time>
      </trkpt>
      <trkpt lat="51.376683041453362" lon="6.631143037229776">
        <ele>89.433314999999993</ele>
        <time>2022-04-13T12:31:30Z</time>
      </trkpt>
      <trkpt lat="51.376754958182573" lon="6.631049998104572">
        <ele>89.124988000000002</ele>
        <time>2022-04-13T12:31:34Z</time>
      </trkpt>
      <trkpt lat="51.376841459423304" lon="6.630968190729618">
        <ele>88.807271</ele>
        <time>2022-04-13T12:31:48Z</time>
      </trkpt>
      <trkpt lat="51.376922847703099" lon="6.630874229595065">
        <ele>88.390086999999994</ele>
        <time>2022-04-13T13:25:41Z</time>
      </trkpt>
      <trkpt lat="51.376976994797587" lon="6.630811030045152">
        <ele>88.068185</ele>
        <time>2022-04-13T13:25:43Z</time>
      </trkpt>
      <trkpt lat="51.377061987295747" lon="6.630738023668528">
        <ele>87.746668999999997</ele>
        <time>2022-04-13T13:25:46Z</time>
      </trkpt>
      <trkpt lat="51.377191906794906" lon="6.630637189373374">
        <ele>87.438861000000003</ele>
        <time>2022-04-13T13:25:47Z</time>
      </trkpt>
      <trkpt lat="51.377247981727123" lon="6.630577007308602">
        <ele>87.041869000000005</ele>
        <time>2022-04-13T13:25:50Z</time>
      </trkpt>
      <trkpt lat="51.377328028902411" lon="6.630499977618456">
        <ele>86.730739999999997</ele>
        <time>2022-04-13T13:25:52Z</time>
      </trkpt>
      <trkpt lat="51.37741201557219" lon="6.630408028140664">
        <ele>86.391521999999995</ele>
        <time>2022-04-13T13:25:54Z</time>
      </trkpt>
      <trkpt lat="51.377639165148139" lon="6.63041858933866">
        <ele>86.060967000000005</ele>
        <time>2022-04-13T13:25:56Z</time>
      </trkpt>
      <trkpt lat="51.377933286130428" lon="6.6302749235183">
        <ele>85.717240000000004</ele>
        <time>2022-04-13T13:25:58Z</time>
      </trkpt>
      <trkpt lat="51.378674330189824" lon="6.629680143669248">
        <ele>85.554767999999996</ele>
        <time>2022-04-13T13:26:00Z</time>
      </trkpt>
      <trkpt lat="51.378867784515023" lon="6.629396500065923">
        <ele>85.544674999999998</ele>
        <time>2022-04-13T13:26:02Z</time>
      </trkpt>
      <trkpt lat="51.378995189443231" lon="6.629158705472946">
        <ele>85.535276999999994</ele>
        <time>2022-04-13T13:26:04Z</time>
      </trkpt>
      <trkpt lat="51.379185123369098" lon="6.628744304180145">
        <ele>85.376563000000004</ele>
        <time>2022-04-13T13:26:39Z</time>
      </trkpt>
      <trkpt lat="51.379343792796135" lon="6.628418248146772">
        <ele>85.376863</ele>
        <time>2022-04-13T13:26:47Z</time>
      </trkpt>
      <trkpt lat="51.379439011216164" lon="6.627945005893707">
        <ele>85.377020000000002</ele>
        <time>2022-04-13T13:26:51Z</time>
      </trkpt>
      <trkpt lat="51.379397939890623" lon="6.627456340938807">
        <ele>85.377189999999999</ele>
        <time>2022-04-13T13:26:54Z</time>
      </trkpt>
      <trkpt lat="51.379331219941378" lon="6.627240255475044">
        <ele>85.377280999999996</ele>
        <time>2022-04-13T13:26:57Z</time>
      </trkpt>
      <trkpt lat="51.379288975149393" lon="6.626928951591253">
        <ele>85.377367000000007</ele>
        <time>2022-04-13T13:26:58Z</time>
      </trkpt>
      <trkpt lat="51.379215968772769" lon="6.626628711819649">
        <ele>85.377459999999999</ele>
        <time>2022-04-13T13:27:00Z</time>
      </trkpt>
      <trkpt lat="51.379126366227865" lon="6.626191679388285">
        <ele>85.377331999999996</ele>
        <time>2022-04-13T13:27:07Z</time>
      </trkpt>
      <trkpt lat="51.379004158079624" lon="6.625573178753257">
        <ele>85.375444000000002</ele>
        <time>2022-04-13T13:27:12Z</time>
      </trkpt>
      <trkpt lat="51.378915226086974" lon="6.625228514894843">
        <ele>85.373485000000002</ele>
        <time>2022-04-13T13:27:21Z</time>
      </trkpt>
      <trkpt lat="51.378769129514694" lon="6.624543378129602">
        <ele>85.372828999999996</ele>
        <time>2022-04-13T13:27:23Z</time>
      </trkpt>
      <trkpt lat="51.378775248304009" lon="6.624373141676188">
        <ele>85.370452999999998</ele>
        <time>2022-04-13T13:27:31Z</time>
      </trkpt>
      <trkpt lat="51.378836687654257" lon="6.624181279912591">
        <ele>85.369873999999996</ele>
        <time>2022-04-13T13:27:34Z</time>
      </trkpt>
      <trkpt lat="51.378928804770112" lon="6.624063011258841">
        <ele>85.369322999999994</ele>
        <time>2022-04-13T13:27:36Z</time>
      </trkpt>
      <trkpt lat="51.379080768674612" lon="6.623982880264521">
        <ele>85.368809999999996</ele>
        <time>2022-04-13T13:27:37Z</time>
      </trkpt>
      <trkpt lat="51.379327699542046" lon="6.623824210837483">
        <ele>85.368077</ele>
        <time>2022-04-13T13:27:39Z</time>
      </trkpt>
      <trkpt lat="51.379595249891281" lon="6.623686412349343">
        <ele>85.366907999999995</ele>
        <time>2022-04-13T13:27:41Z</time>
      </trkpt>
      <trkpt lat="51.379964640364051" lon="6.623475523665547">
        <ele>85.364964999999998</ele>
        <time>2022-04-13T13:27:43Z</time>
      </trkpt>
      <trkpt lat="51.380216768011451" lon="6.62338575348258">
        <ele>85.363024999999993</ele>
        <time>2022-04-13T13:27:45Z</time>
      </trkpt>
      <trkpt lat="51.38068632222712" lon="6.623163633048534">
        <ele>85.339256000000006</ele>
        <time>2022-04-13T13:28:09Z</time>
      </trkpt>
      <trkpt lat="51.381581006571651" lon="6.622598022222519">
        <ele>85.325194999999994</ele>
        <time>2022-04-13T13:28:25Z</time>
      </trkpt>
      <trkpt lat="51.381808994337916" lon="6.62251403555274">
        <ele>85.321872999999997</ele>
        <time>2022-04-13T13:28:29Z</time>
      </trkpt>
      <trkpt lat="51.381929023191333" lon="6.622457038611174">
        <ele>85.320096000000007</ele>
        <time>2022-04-13T13:28:31Z</time>
      </trkpt>
      <trkpt lat="51.382044022902846" lon="6.622393000870943">
        <ele>85.318368000000007</ele>
        <time>2022-04-13T13:28:33Z</time>
      </trkpt>
      <trkpt lat="51.38215902261436" lon="6.622345978394151">
        <ele>85.316682999999998</ele>
        <time>2022-04-13T13:28:35Z</time>
      </trkpt>
      <trkpt lat="51.382262958213687" lon="6.622285963967443">
        <ele>85.315112999999997</ele>
        <time>2022-04-13T13:28:37Z</time>
      </trkpt>
      <trkpt lat="51.382371000945568" lon="6.62221203558147">
        <ele>85.313445999999999</ele>
        <time>2022-04-13T13:28:39Z</time>
      </trkpt>
      <trkpt lat="51.382454317063093" lon="6.622113464400172">
        <ele>85.311572999999996</ele>
        <time>2022-04-13T13:28:41Z</time>
      </trkpt>
      <trkpt lat="51.382462698966265" lon="6.621888913214207">
        <ele>85.311701999999997</ele>
        <time>2022-04-13T13:28:43Z</time>
      </trkpt>
      <trkpt lat="51.382436379790306" lon="6.621622117236257">
        <ele>85.312511000000001</ele>
        <time>2022-04-13T13:28:45Z</time>
      </trkpt>
      <trkpt lat="51.382490945979953" lon="6.621508039534092">
        <ele>85.313391999999993</ele>
        <time>2022-04-13T13:28:47Z</time>
      </trkpt>
      <trkpt lat="51.382582979276776" lon="6.621481971815229">
        <ele>85.314297999999994</ele>
        <time>2022-04-13T13:28:50Z</time>
      </trkpt>
      <trkpt lat="51.382703008130193" lon="6.621447019279003">
        <ele>85.315372999999994</ele>
        <time>2022-04-13T13:28:52Z</time>
      </trkpt>
      <trkpt lat="51.382820019498467" lon="6.621384993195534">
        <ele>85.316458999999995</ele>
        <time>2022-04-13T13:28:55Z</time>
      </trkpt>
      <trkpt lat="51.382924038916826" lon="6.621302012354136">
        <ele>85.317482999999996</ele>
        <time>2022-04-13T13:28:57Z</time>
      </trkpt>
      <trkpt lat="51.383028980344534" lon="6.621221965178847">
        <ele>85.318507999999994</ele>
        <time>2022-04-13T13:28:58Z</time>
      </trkpt>
      <trkpt lat="51.383125958964229" lon="6.621144013479352">
        <ele>85.319463999999996</ele>
        <time>2022-04-13T13:29:00Z</time>
      </trkpt>
      <trkpt lat="51.383337350562215" lon="6.6210896987468">
        <ele>85.320347999999996</ele>
        <time>2022-04-13T13:29:02Z</time>
      </trkpt>
      <trkpt lat="51.383653599768877" lon="6.62122699432075">
        <ele>85.321275999999997</ele>
        <time>2022-04-13T13:29:04Z</time>
      </trkpt>
      <trkpt lat="51.383828446269035" lon="6.621369319036603">
        <ele>85.326262999999997</ele>
        <time>2022-04-13T13:29:14Z</time>
      </trkpt>
      <trkpt lat="51.38403631746769" lon="6.621531089767814">
        <ele>85.335356000000004</ele>
        <time>2022-04-13T13:29:22Z</time>
      </trkpt>
      <trkpt lat="51.384203117340803" lon="6.621566377580166">
        <ele>85.338098000000002</ele>
        <time>2022-04-13T13:29:24Z</time>
      </trkpt>
      <trkpt lat="51.384364804252982" lon="6.621532933786511">
        <ele>85.340802999999994</ele>
        <time>2022-04-13T13:29:26Z</time>
      </trkpt>
      <trkpt lat="51.384594971314073" lon="6.621448528021574">
        <ele>85.343307999999993</ele>
        <time>2022-04-13T13:29:28Z</time>
      </trkpt>
      <trkpt lat="51.384849362075329" lon="6.621304443106055">
        <ele>85.345697999999999</ele>
        <time>2022-04-13T13:29:31Z</time>
      </trkpt>
      <trkpt lat="51.385000739246607" lon="6.62121819332242">
        <ele>85.348121000000006</ele>
        <time>2022-04-13T13:29:32Z</time>
      </trkpt>
      <trkpt lat="51.385023035109043" lon="6.621148958802223">
        <ele>85.350499999999997</ele>
        <time>2022-04-13T13:29:34Z</time>
      </trkpt>
      <trkpt lat="51.385150020942092" lon="6.621081987395883">
        <ele>85.353192000000007</ele>
        <time>2022-04-13T13:29:36Z</time>
      </trkpt>
      <trkpt lat="51.385234007611871" lon="6.621022978797555">
        <ele>85.355037999999993</ele>
        <time>2022-04-13T13:29:38Z</time>
      </trkpt>
      <trkpt lat="51.385503904893994" lon="6.620938405394554">
        <ele>85.360044000000002</ele>
        <time>2022-04-13T13:29:42Z</time>
      </trkpt>
      <trkpt lat="51.385851167142391" lon="6.620853329077363">
        <ele>85.371576000000005</ele>
        <time>2022-04-13T13:29:49Z</time>
      </trkpt>
      <trkpt lat="51.386341257020831" lon="6.62073690444231">
        <ele>85.398982000000004</ele>
        <time>2022-04-13T13:29:56Z</time>
      </trkpt>
      <trkpt lat="51.386521970853209" lon="6.62066800519824">
        <ele>85.415671000000003</ele>
        <time>2022-04-13T13:30:02Z</time>
      </trkpt>
      <trkpt lat="51.386862024664879" lon="6.620596004649997">
        <ele>85.435334999999995</ele>
        <time>2022-04-13T13:30:09Z</time>
      </trkpt>
      <trkpt lat="51.387172993272543" lon="6.620592987164855">
        <ele>85.453123000000005</ele>
        <time>2022-04-13T13:30:15Z</time>
      </trkpt>
      <trkpt lat="51.387344319373369" lon="6.620555436238647">
        <ele>85.458713000000003</ele>
        <time>2022-04-13T13:30:18Z</time>
      </trkpt>
      <trkpt lat="51.387539617717266" lon="6.620718631893396">
        <ele>85.477992999999998</ele>
        <time>2022-04-13T13:30:21Z</time>
      </trkpt>
      <trkpt lat="51.387659814208746" lon="6.620890209451318">
        <ele>85.487043</ele>
        <time>2022-04-13T13:30:23Z</time>
      </trkpt>
      <trkpt lat="51.387703232467175" lon="6.621047202497721">
        <ele>85.496880000000004</ele>
        <time>2022-04-13T13:30:25Z</time>
      </trkpt>
      <trkpt lat="51.387702142819762" lon="6.621286338195205">
        <ele>85.508584999999997</ele>
        <time>2022-04-13T13:30:27Z</time>
      </trkpt>
      <trkpt lat="51.387699460610747" lon="6.621502423658967">
        <ele>85.519965999999997</ele>
        <time>2022-04-13T13:30:29Z</time>
      </trkpt>
      <trkpt lat="51.387673895806074" lon="6.62166721187532">
        <ele>85.530902999999995</ele>
        <time>2022-04-13T13:30:31Z</time>
      </trkpt>
      <trkpt lat="51.387674566358328" lon="6.621844405308366">
        <ele>85.543844000000007</ele>
        <time>2022-04-13T13:30:33Z</time>
      </trkpt>
      <trkpt lat="51.387667860835791" lon="6.62209183908999">
        <ele>85.556938000000002</ele>
        <time>2022-04-13T13:30:35Z</time>
      </trkpt>
      <trkpt lat="51.387678170576692" lon="6.622229469940066">
        <ele>85.570212999999995</ele>
        <time>2022-04-13T13:30:37Z</time>
      </trkpt>
      <trkpt lat="51.387706333771348" lon="6.622403226792812">
        <ele>85.579842999999997</ele>
        <time>2022-04-13T13:30:39Z</time>
      </trkpt>
      <trkpt lat="51.387813873589039" lon="6.622321838513017">
        <ele>85.591070999999999</ele>
        <time>2022-04-13T13:30:41Z</time>
      </trkpt>
      <trkpt lat="51.38790431432426" lon="6.622265428304672">
        <ele>85.602554999999995</ele>
        <time>2022-04-13T13:30:43Z</time>
      </trkpt>
      <trkpt lat="51.38805971480906" lon="6.622147914022207">
        <ele>85.617553999999998</ele>
        <time>2022-04-13T13:30:46Z</time>
      </trkpt>
      <trkpt lat="51.388322655111551" lon="6.621948927640915">
        <ele>85.631180999999998</ele>
        <time>2022-04-13T13:30:47Z</time>
      </trkpt>
      <trkpt lat="51.38904819265008" lon="6.62143612280488">
        <ele>85.677745000000002</ele>
        <time>2022-04-13T13:31:05Z</time>
      </trkpt>
      <trkpt lat="51.388950794935226" lon="6.621231185272336">
        <ele>85.681881000000004</ele>
        <time>2022-04-13T13:31:09Z</time>
      </trkpt>
      <trkpt lat="51.388861192390323" lon="6.620878893882036">
        <ele>85.689903000000001</ele>
        <time>2022-04-13T13:31:18Z</time>
      </trkpt>
      <trkpt lat="51.38861920684576" lon="6.620240611955524">
        <ele>85.694242000000003</ele>
        <time>2022-04-13T13:31:22Z</time>
      </trkpt>
      <trkpt lat="51.388423070311546" lon="6.619645832106471">
        <ele>85.699178000000003</ele>
        <time>2022-04-13T13:31:25Z</time>
      </trkpt>
      <trkpt lat="51.388293486088514" lon="6.619012746959925">
        <ele>85.736483000000007</ele>
        <time>2022-04-13T13:31:34Z</time>
      </trkpt>
      <trkpt lat="51.388222575187683" lon="6.618319228291512">
        <ele>85.758909000000003</ele>
        <time>2022-04-13T13:31:39Z</time>
      </trkpt>
      <trkpt lat="51.388163901865482" lon="6.617200328037143">
        <ele>85.793700000000001</ele>
        <time>2022-04-13T13:31:45Z</time>
      </trkpt>
      <trkpt lat="51.38810564763844" lon="6.616844516247511">
        <ele>85.817695000000001</ele>
        <time>2022-04-13T13:31:48Z</time>
      </trkpt>
      <trkpt lat="51.387983188033104" lon="6.616642344743013">
        <ele>85.961984999999999</ele>
        <time>2022-04-13T13:32:24Z</time>
      </trkpt>
      <trkpt lat="51.387798450887203" lon="6.616115709766746">
        <ele>85.969282000000007</ele>
        <time>2022-04-13T13:32:27Z</time>
      </trkpt>
      <trkpt lat="51.387770958244801" lon="6.615833574905992">
        <ele>85.975508000000005</ele>
        <time>2022-04-13T13:32:29Z</time>
      </trkpt>
      <trkpt lat="51.387843964621425" lon="6.614869572222233">
        <ele>85.981755000000007</ele>
        <time>2022-04-13T13:32:31Z</time>
      </trkpt>
      <trkpt lat="51.387882521376014" lon="6.614626245573163">
        <ele>85.985864000000007</ele>
        <time>2022-04-13T13:32:33Z</time>
      </trkpt>
      <trkpt lat="51.387915965169668" lon="6.614399012178183">
        <ele>85.988737</ele>
        <time>2022-04-13T13:32:35Z</time>
      </trkpt>
      <trkpt lat="51.387948989868164" lon="6.614316031336784">
        <ele>85.991395999999995</ele>
        <time>2022-04-13T13:32:37Z</time>
      </trkpt>
      <trkpt lat="51.38796198181808" lon="6.614097012206912">
        <ele>85.994219000000001</ele>
        <time>2022-04-13T13:32:39Z</time>
      </trkpt>
      <trkpt lat="51.387984026223421" lon="6.613854020833969">
        <ele>85.997370000000004</ele>
        <time>2022-04-13T13:32:41Z</time>
      </trkpt>
      <trkpt lat="51.388011015951633" lon="6.613668026402593">
        <ele>85.99982</ele>
        <time>2022-04-13T13:32:44Z</time>
      </trkpt>
      <trkpt lat="51.388042028993368" lon="6.613499969244003">
        <ele>86.002067999999994</ele>
        <time>2022-04-13T13:32:45Z</time>
      </trkpt>
      <trkpt lat="51.388067007064819" lon="6.613326966762543">
        <ele>86.004346999999996</ele>
        <time>2022-04-13T13:32:47Z</time>
      </trkpt>
      <trkpt lat="51.388156274333596" lon="6.612495062872767">
        <ele>86.014792</ele>
        <time>2022-04-13T13:32:57Z</time>
      </trkpt>
      <trkpt lat="51.388245206326246" lon="6.61157556809485">
        <ele>86.010879000000003</ele>
        <time>2022-04-13T13:33:09Z</time>
      </trkpt>
      <trkpt lat="51.388318296521902" lon="6.610950697213411">
        <ele>86.001085000000003</ele>
        <time>2022-04-13T13:33:15Z</time>
      </trkpt>
      <trkpt lat="51.388477720320225" lon="6.610886659473181">
        <ele>85.997118</ele>
        <time>2022-04-13T13:33:19Z</time>
      </trkpt>
      <trkpt lat="51.388662708923221" lon="6.610827399417758">
        <ele>85.993163999999993</ele>
        <time>2022-04-13T13:33:21Z</time>
      </trkpt>
      <trkpt lat="51.389368548989296" lon="6.610644506290555">
        <ele>85.990246999999997</ele>
        <time>2022-04-13T13:33:23Z</time>
      </trkpt>
      <trkpt lat="51.390345292165875" lon="6.610365808010101">
        <ele>85.986761999999999</ele>
        <time>2022-04-13T13:33:25Z</time>
      </trkpt>
      <trkpt lat="51.392304562032223" lon="6.609799945726991">
        <ele>85.983160999999996</ele>
        <time>2022-04-13T13:33:28Z</time>
      </trkpt>
      <trkpt lat="51.393574001267552" lon="6.612146962434053">
        <ele>86.102793000000005</ele>
        <time>2022-04-13T13:35:05Z</time>
      </trkpt>
      <trkpt lat="51.393663939088583" lon="6.612395318225026">
        <ele>86.130015</ele>
        <time>2022-04-13T13:35:07Z</time>
      </trkpt>
      <trkpt lat="51.393829649314284" lon="6.612584916874766">
        <ele>86.159318999999996</ele>
        <time>2022-04-13T13:35:09Z</time>
      </trkpt>
      <trkpt lat="51.393831996247172" lon="6.612575026229024">
        <ele>86.186025999999998</ele>
        <time>2022-04-13T13:35:11Z</time>
      </trkpt>
      <trkpt lat="51.39391397126019" lon="6.61267502233386">
        <ele>86.262656000000007</ele>
        <time>2022-04-13T13:35:13Z</time>
      </trkpt>
      <trkpt lat="51.394003992900252" lon="6.612751968204975">
        <ele>86.340227999999996</ele>
        <time>2022-04-13T13:35:15Z</time>
      </trkpt>
      <trkpt lat="51.394778564572334" lon="6.613227725028992">
        <ele>86.928229000000002</ele>
        <time>2022-04-13T13:35:29Z</time>
      </trkpt>
      <trkpt lat="51.395109398290515" lon="6.613429728895426">
        <ele>87.189597000000006</ele>
        <time>2022-04-13T13:35:36Z</time>
      </trkpt>
      <trkpt lat="51.395243760198355" lon="6.613453198224306">
        <ele>87.362600999999998</ele>
        <time>2022-04-13T13:35:40Z</time>
      </trkpt>
      <trkpt lat="51.396369365975261" lon="6.6136434674263">
        <ele>87.900828000000004</ele>
        <time>2022-04-13T13:35:57Z</time>
      </trkpt>
      <trkpt lat="51.396628031507134" lon="6.613976899534464">
        <ele>88.101190000000003</ele>
        <time>2022-04-13T13:36:05Z</time>
      </trkpt>
      <trkpt lat="51.396834226325154" lon="6.614115703850985">
        <ele>88.215137999999996</ele>
        <time>2022-04-13T13:36:12Z</time>
      </trkpt>
      <trkpt lat="51.397384079173207" lon="6.614214442670345">
        <ele>87.990044999999995</ele>
        <time>2022-04-13T13:37:13Z</time>
      </trkpt>
      <trkpt lat="51.398699032142758" lon="6.61422299221158">
        <ele>87.948414</ele>
        <time>2022-04-13T13:37:17Z</time>
      </trkpt>
      <trkpt lat="51.399281993508339" lon="6.614088965579867">
        <ele>87.850202999999993</ele>
        <time>2022-04-13T13:37:27Z</time>
      </trkpt>
      <trkpt lat="51.399394981563091" lon="6.614063987508416">
        <ele>87.831204</ele>
        <time>2022-04-13T13:37:29Z</time>
      </trkpt>
      <trkpt lat="51.399619029834867" lon="6.61398502998054">
        <ele>87.793002999999999</ele>
        <time>2022-04-13T13:37:34Z</time>
      </trkpt>
      <trkpt lat="51.399818351492286" lon="6.613866426050663">
        <ele>87.774765000000002</ele>
        <time>2022-04-13T13:37:35Z</time>
      </trkpt>
      <trkpt lat="51.400131415575743" lon="6.613746648654342">
        <ele>87.736304000000004</ele>
        <time>2022-04-13T13:37:39Z</time>
      </trkpt>
      <trkpt lat="51.400402905419469" lon="6.613662326708436">
        <ele>87.697345999999996</ele>
        <time>2022-04-13T13:37:43Z</time>
      </trkpt>
      <trkpt lat="51.400585044175386" lon="6.613564928993583">
        <ele>87.679007999999996</ele>
        <time>2022-04-13T13:37:45Z</time>
      </trkpt>
      <trkpt lat="51.400752933695912" lon="6.613530730828643">
        <ele>87.620872000000006</ele>
        <time>2022-04-13T13:37:51Z</time>
      </trkpt>
      <trkpt lat="51.400974970310926" lon="6.613459652289748">
        <ele>87.583388999999997</ele>
        <time>2022-04-13T13:37:56Z</time>
      </trkpt>
      <trkpt lat="51.401435974985361" lon="6.613292517140508">
        <ele>87.509428999999997</ele>
        <time>2022-04-13T13:38:03Z</time>
      </trkpt>
      <trkpt lat="51.401673937216401" lon="6.613181121647358">
        <ele>87.490048999999999</ele>
        <time>2022-04-13T13:38:05Z</time>
      </trkpt>
      <trkpt lat="51.402774564921856" lon="6.61276244558394">
        <ele>87.273532000000003</ele>
        <time>2022-04-13T13:38:29Z</time>
      </trkpt>
      <trkpt lat="51.403960017487407" lon="6.612316025421023">
        <ele>87.063220999999999</ele>
        <time>2022-04-13T13:38:49Z</time>
      </trkpt>
      <trkpt lat="51.404076023027301" lon="6.612250981852412">
        <ele>87.031244000000001</ele>
        <time>2022-04-13T13:38:51Z</time>
      </trkpt>
      <trkpt lat="51.404194962233305" lon="6.612206976860762">
        <ele>86.999465000000001</ele>
        <time>2022-04-13T13:38:53Z</time>
      </trkpt>
      <trkpt lat="51.40430903993547" lon="6.612162971869111">
        <ele>86.968951000000004</ele>
        <time>2022-04-13T13:38:55Z</time>
      </trkpt>
      <trkpt lat="51.40441901050508" lon="6.612108992412686">
        <ele>86.939014999999998</ele>
        <time>2022-04-13T13:38:58Z</time>
      </trkpt>
      <trkpt lat="51.404512971639633" lon="6.612091977149248">
        <ele>86.914399000000003</ele>
        <time>2022-04-13T13:38:59Z</time>
      </trkpt>
      <trkpt lat="51.404611961916089" lon="6.612070016562939">
        <ele>86.888390000000001</ele>
        <time>2022-04-13T13:39:01Z</time>
      </trkpt>
      <trkpt lat="51.404726961627603" lon="6.612021988257766">
        <ele>86.857467</ele>
        <time>2022-04-13T13:39:03Z</time>
      </trkpt>
      <trkpt lat="51.404846990481019" lon="6.611967002972961">
        <ele>86.824988000000005</ele>
        <time>2022-04-13T13:39:05Z</time>
      </trkpt>
      <trkpt lat="51.404952015727758" lon="6.611928027123213">
        <ele>86.796941000000004</ele>
        <time>2022-04-13T13:39:07Z</time>
      </trkpt>
      <trkpt lat="51.405059974640608" lon="6.61190296523273">
        <ele>86.768546000000001</ele>
        <time>2022-04-13T13:39:09Z</time>
      </trkpt>
      <trkpt lat="51.405176986008883" lon="6.61185703240335">
        <ele>86.737196999999995</ele>
        <time>2022-04-13T13:39:11Z</time>
      </trkpt>
      <trkpt lat="51.405288968235254" lon="6.611802969127893">
        <ele>86.706761999999998</ele>
        <time>2022-04-13T13:39:13Z</time>
      </trkpt>
      <trkpt lat="51.405399022623897" lon="6.611764999106526">
        <ele>86.677481</ele>
        <time>2022-04-13T13:39:16Z</time>
      </trkpt>
      <trkpt lat="51.405517961829901" lon="6.611714037135243">
        <ele>86.645843999999997</ele>
        <time>2022-04-13T13:39:17Z</time>
      </trkpt>
      <trkpt lat="51.405636984854937" lon="6.611657040193677">
        <ele>86.624134999999995</ele>
        <time>2022-04-13T13:39:19Z</time>
      </trkpt>
      <trkpt lat="51.405753996223211" lon="6.611595014110208">
        <ele>86.602596000000005</ele>
        <time>2022-04-13T13:39:21Z</time>
      </trkpt>
      <trkpt lat="51.405868995934725" lon="6.611571963876486">
        <ele>86.582339000000005</ele>
        <time>2022-04-13T13:39:23Z</time>
      </trkpt>
      <trkpt lat="51.405982989817858" lon="6.611537011340261">
        <ele>86.562050999999997</ele>
        <time>2022-04-13T13:39:25Z</time>
      </trkpt>
      <trkpt lat="51.406096983700991" lon="6.611494012176991">
        <ele>86.541579999999996</ele>
        <time>2022-04-13T13:39:28Z</time>
      </trkpt>
      <trkpt lat="51.406210977584124" lon="6.611441960558295">
        <ele>86.520863000000006</ele>
        <time>2022-04-13T13:39:29Z</time>
      </trkpt>
      <trkpt lat="51.406326983124018" lon="6.611403990536928">
        <ele>86.500169</ele>
        <time>2022-04-13T13:39:31Z</time>
      </trkpt>
      <trkpt lat="51.406443994492292" lon="6.611363003030419">
        <ele>86.479235000000003</ele>
        <time>2022-04-13T13:39:33Z</time>
      </trkpt>
      <trkpt lat="51.406564023345709" lon="6.611330984160304">
        <ele>86.457971999999998</ele>
        <time>2022-04-13T13:39:35Z</time>
      </trkpt>
      <trkpt lat="51.406682040542364" lon="6.611294019967318">
        <ele>86.436955999999995</ele>
        <time>2022-04-13T13:39:37Z</time>
      </trkpt>
      <trkpt lat="51.406798968091607" lon="6.611254960298538">
        <ele>86.416067999999996</ele>
        <time>2022-04-13T13:39:39Z</time>
      </trkpt>
      <trkpt lat="51.406914973631501" lon="6.611220007762313">
        <ele>86.395436000000004</ele>
        <time>2022-04-13T13:39:41Z</time>
      </trkpt>
      <trkpt lat="51.407035002484918" lon="6.611196035519242">
        <ele>86.374297999999996</ele>
        <time>2022-04-13T13:39:43Z</time>
      </trkpt>
      <trkpt lat="51.407145978882909" lon="6.611162004992366">
        <ele>86.354545000000002</ele>
        <time>2022-04-13T13:39:45Z</time>
      </trkpt>
      <trkpt lat="51.407261984422803" lon="6.611127974465489">
        <ele>86.333933999999999</ele>
        <time>2022-04-13T13:39:47Z</time>
      </trkpt>
      <trkpt lat="51.407374972477555" lon="6.611090004444122">
        <ele>86.325902999999997</ele>
        <time>2022-04-13T13:39:49Z</time>
      </trkpt>
      <trkpt lat="51.407492989674211" lon="6.611057985574007">
        <ele>86.318681999999995</ele>
        <time>2022-04-13T13:39:52Z</time>
      </trkpt>
      <trkpt lat="51.407616036012769" lon="6.611022027209401">
        <ele>86.311137000000002</ele>
        <time>2022-04-13T13:39:54Z</time>
      </trkpt>
      <trkpt lat="51.407736986875534" lon="6.610990008339286">
        <ele>86.303736999999998</ele>
        <time>2022-04-13T13:39:55Z</time>
      </trkpt>
      <trkpt lat="51.407858021557331" lon="6.610966958105564">
        <ele>86.296384000000003</ele>
        <time>2022-04-13T13:39:58Z</time>
      </trkpt>
      <trkpt lat="51.407979978248477" lon="6.610949020832777">
        <ele>86.288990999999996</ele>
        <time>2022-04-13T13:39:59Z</time>
      </trkpt>
      <trkpt lat="51.408104030415416" lon="6.610936028882861">
        <ele>86.281492</ele>
        <time>2022-04-13T13:40:01Z</time>
      </trkpt>
      <trkpt lat="51.408229004591703" lon="6.610933011397719">
        <ele>86.273949000000002</ele>
        <time>2022-04-13T13:40:03Z</time>
      </trkpt>
      <trkpt lat="51.40835196711123" lon="6.610924964770675">
        <ele>86.26652</ele>
        <time>2022-04-13T13:40:05Z</time>
      </trkpt>
      <trkpt lat="51.408477025106549" lon="6.610909039154649">
        <ele>86.258953000000005</ele>
        <time>2022-04-13T13:40:07Z</time>
      </trkpt>
      <trkpt lat="51.408598981797695" lon="6.610893029719591">
        <ele>86.251566999999994</ele>
        <time>2022-04-13T13:40:09Z</time>
      </trkpt>
      <trkpt lat="51.408724039793015" lon="6.61087098531425">
        <ele>86.243978999999996</ele>
        <time>2022-04-13T13:40:12Z</time>
      </trkpt>
      <trkpt lat="51.408852031454444" lon="6.610868973657489">
        <ele>86.236254000000002</ele>
        <time>2022-04-13T13:40:13Z</time>
      </trkpt>
      <trkpt lat="51.408983040601015" lon="6.610856987535954">
        <ele>86.228335999999999</ele>
        <time>2022-04-13T13:40:15Z</time>
      </trkpt>
      <trkpt lat="51.409110026434064" lon="6.610857993364334">
        <ele>86.254295999999997</ele>
        <time>2022-04-13T13:40:17Z</time>
      </trkpt>
      <trkpt lat="51.409237012267113" lon="6.610874002799392">
        <ele>86.329950999999994</ele>
        <time>2022-04-13T13:40:19Z</time>
      </trkpt>
      <trkpt lat="51.409362992271781" lon="6.610880037769675">
        <ele>86.404813000000004</ele>
        <time>2022-04-13T13:40:21Z</time>
      </trkpt>
      <trkpt lat="51.409483021125197" lon="6.610914990305901">
        <ele>86.477248000000003</ele>
        <time>2022-04-13T13:40:23Z</time>
      </trkpt>
      <trkpt lat="51.409604977816343" lon="6.610952960327268">
        <ele>86.551056000000003</ele>
        <time>2022-04-13T13:40:25Z</time>
      </trkpt>
      <trkpt lat="51.409728024154902" lon="6.610965030267835">
        <ele>86.624238000000005</ele>
        <time>2022-04-13T13:40:28Z</time>
      </trkpt>
      <trkpt lat="51.409852998331189" lon="6.610982967540622">
        <ele>86.698770999999994</ele>
        <time>2022-04-13T13:40:29Z</time>
      </trkpt>
      <trkpt lat="51.409975960850716" lon="6.610996965318918">
        <ele>86.772002000000001</ele>
        <time>2022-04-13T13:40:31Z</time>
      </trkpt>
      <trkpt lat="51.410096995532513" lon="6.611024038866162">
        <ele>86.844554000000002</ele>
        <time>2022-04-13T13:40:33Z</time>
      </trkpt>
      <trkpt lat="51.410215012729168" lon="6.611053962260485">
        <ele>86.915507000000005</ele>
        <time>2022-04-13T13:40:36Z</time>
      </trkpt>
      <trkpt lat="51.410337975248694" lon="6.611080029979348">
        <ele>86.989186000000004</ele>
        <time>2022-04-13T13:40:37Z</time>
      </trkpt>
      <trkpt lat="51.410461021587253" lon="6.611107019707561">
        <ele>87.062915000000004</ele>
        <time>2022-04-13T13:40:39Z</time>
      </trkpt>
      <trkpt lat="51.410576021298766" lon="6.611142978072166">
        <ele>87.132499999999993</ele>
        <time>2022-04-13T13:40:41Z</time>
      </trkpt>
      <trkpt lat="51.410684986039996" lon="6.611162004992366">
        <ele>87.197614000000002</ele>
        <time>2022-04-13T13:40:44Z</time>
      </trkpt>
      <trkpt lat="51.410774001851678" lon="6.611203998327255">
        <ele>87.252712000000002</ele>
        <time>2022-04-13T13:40:45Z</time>
      </trkpt>
      <trkpt lat="51.410867040976882" lon="6.611237023025751">
        <ele>87.292578000000006</ele>
        <time>2022-04-13T13:40:47Z</time>
      </trkpt>
      <trkpt lat="51.410987991839647" lon="6.611292008310556">
        <ele>87.295293000000001</ele>
        <time>2022-04-13T13:40:50Z</time>
      </trkpt>
      <trkpt lat="51.411034427583218" lon="6.611314723268151">
        <ele>87.297978000000001</ele>
        <time>2022-04-13T13:40:53Z</time>
      </trkpt>
      <trkpt lat="51.411046832799911" lon="6.611143732443452">
        <ele>87.300203999999994</ele>
        <time>2022-04-13T13:40:58Z</time>
      </trkpt>
      <trkpt lat="51.410976676270366" lon="6.610881797969341">
        <ele>87.302182999999999</ele>
        <time>2022-04-13T13:41:02Z</time>
      </trkpt>
      <trkpt lat="51.410937700420618" lon="6.610361952334642">
        <ele>87.305034000000006</ele>
        <time>2022-04-13T13:41:05Z</time>
      </trkpt>
      <trkpt lat="51.410855306312442" lon="6.608505696058273">
        <ele>87.309139999999999</ele>
        <time>2022-04-13T13:41:09Z</time>
      </trkpt>
      <trkpt lat="51.410650704056025" lon="6.606871224939823">
        <ele>81.492784999999998</ele>
        <time>2022-04-13T13:41:53Z</time>
      </trkpt>
      <trkpt lat="51.410615248605609" lon="6.606651619076729">
        <ele>80.916624999999996</ele>
        <time>2022-04-13T13:41:56Z</time>
      </trkpt>
      <trkpt lat="51.410618601366878" lon="6.606443161144853">
        <ele>80.485574999999997</ele>
        <time>2022-04-13T13:41:58Z</time>
      </trkpt>
      <trkpt lat="51.410597981885076" lon="6.606252724304795">
        <ele>80.004703000000006</ele>
        <time>2022-04-13T13:42:00Z</time>
      </trkpt>
      <trkpt lat="51.41043696552515" lon="6.603497005999088">
        <ele>77.957567999999995</ele>
        <time>2022-04-13T13:42:32Z</time>
      </trkpt>
      <trkpt lat="51.410415004938841" lon="6.603172961622477">
        <ele>77.859272000000004</ele>
        <time>2022-04-13T13:42:36Z</time>
      </trkpt>
      <trkpt lat="51.410375945270061" lon="6.602913541719317">
        <ele>77.829729</ele>
        <time>2022-04-13T13:42:40Z</time>
      </trkpt>
      <trkpt lat="51.410566130653024" lon="6.602923097088933">
        <ele>77.804900000000004</ele>
        <time>2022-04-13T13:42:48Z</time>
      </trkpt>
      <trkpt lat="51.41075455583632" lon="6.60290976986289">
        <ele>77.779235999999997</ele>
        <time>2022-04-13T13:42:51Z</time>
      </trkpt>
      <trkpt lat="51.410937868058681" lon="6.602912368252873">
        <ele>77.740795000000006</ele>
        <time>2022-04-13T13:42:53Z</time>
      </trkpt>
      <trkpt lat="51.41116501763463" lon="6.602910188958049">
        <ele>77.705627000000007</ele>
        <time>2022-04-13T13:42:54Z</time>
      </trkpt>
      <trkpt lat="51.411392167210579" lon="6.602907925844193">
        <ele>77.668265000000005</ele>
        <time>2022-04-13T13:42:57Z</time>
      </trkpt>
      <trkpt lat="51.411681929603219" lon="6.602898621931672">
        <ele>77.633874000000006</ele>
        <time>2022-04-13T13:42:58Z</time>
      </trkpt>
      <trkpt lat="51.413373900577426" lon="6.60289459861815">
        <ele>78.266813999999997</ele>
        <time>2022-04-13T13:43:37Z</time>
      </trkpt>
      <trkpt lat="51.413448499515653" lon="6.60287850536406">
        <ele>78.328643999999997</ele>
        <time>2022-04-13T13:43:38Z</time>
      </trkpt>
      <trkpt lat="51.413531480357051" lon="6.602638028562069">
        <ele>78.390772999999996</ele>
        <time>2022-04-13T13:43:41Z</time>
      </trkpt>
      <trkpt lat="51.413630386814475" lon="6.602357150986791">
        <ele>78.459233999999995</ele>
        <time>2022-04-13T13:43:47Z</time>
      </trkpt>
      <trkpt lat="51.413758378475904" lon="6.602042242884636">
        <ele>78.480080000000001</ele>
        <time>2022-04-13T13:43:50Z</time>
      </trkpt>
      <trkpt lat="51.41384026966989" lon="6.601871168240905">
        <ele>78.469093000000001</ele>
        <time>2022-04-13T13:43:52Z</time>
      </trkpt>
      <trkpt lat="51.413944875821471" lon="6.601666817441583">
        <ele>78.302504999999996</ele>
        <time>2022-04-13T13:44:17Z</time>
      </trkpt>
      <trkpt lat="51.413809005171061" lon="6.599855069071055">
        <ele>78.279021999999998</ele>
        <time>2022-04-13T13:44:22Z</time>
      </trkpt>
      <trkpt lat="51.413887040689588" lon="6.59991298802197">
        <ele>78.249936000000005</ele>
        <time>2022-04-13T13:44:24Z</time>
      </trkpt>
      <trkpt lat="51.413971027359366" lon="6.599864037707448">
        <ele>78.203180000000003</ele>
        <time>2022-04-13T13:44:27Z</time>
      </trkpt>
      <trkpt lat="51.414093989878893" lon="6.599788013845682">
        <ele>78.134229000000005</ele>
        <time>2022-04-13T13:44:30Z</time>
      </trkpt>
      <trkpt lat="51.414224999025464" lon="6.599716013297439">
        <ele>78.061790999999999</ele>
        <time>2022-04-13T13:44:33Z</time>
      </trkpt>
      <trkpt lat="51.414330024272203" lon="6.59967795945704">
        <ele>78.005486000000005</ele>
        <time>2022-04-13T13:44:35Z</time>
      </trkpt>
      <trkpt lat="51.414429014548659" lon="6.599634038284421">
        <ele>77.951749000000007</ele>
        <time>2022-04-13T13:44:38Z</time>
      </trkpt>
      <trkpt lat="51.414473857730627" lon="6.599448379129171">
        <ele>77.898081000000005</ele>
        <time>2022-04-13T13:44:39Z</time>
      </trkpt>
      <trkpt lat="51.4144476223737" lon="6.599266324192286">
        <ele>77.849068000000003</ele>
        <time>2022-04-13T13:44:41Z</time>
      </trkpt>
      <trkpt lat="51.414386015385389" lon="6.599034229293466">
        <ele>77.796454999999995</ele>
        <time>2022-04-13T13:44:44Z</time>
      </trkpt>
      <trkpt lat="51.414346033707261" lon="6.598753519356251">
        <ele>77.740661000000003</ele>
        <time>2022-04-13T13:44:46Z</time>
      </trkpt>
      <trkpt lat="51.414303788915277" lon="6.598526956513524">
        <ele>77.679312999999993</ele>
        <time>2022-04-13T13:44:47Z</time>
      </trkpt>
      <trkpt lat="51.414284259080887" lon="6.59818229265511">
        <ele>77.626261</ele>
        <time>2022-04-13T13:44:49Z</time>
      </trkpt>
      <trkpt lat="51.414241008460522" lon="6.596847977489233">
        <ele>77.014948000000004</ele>
        <time>2022-04-13T13:45:12Z</time>
      </trkpt>
      <trkpt lat="51.414230028167367" lon="6.596665000542998">
        <ele>76.956394000000003</ele>
        <time>2022-04-13T13:45:15Z</time>
      </trkpt>
      <trkpt lat="51.414204128086567" lon="6.596497278660536">
        <ele>76.908241000000004</ele>
        <time>2022-04-13T13:45:18Z</time>
      </trkpt>
      <trkpt lat="51.414181832224131" lon="6.596199134364724">
        <ele>76.844987000000003</ele>
        <time>2022-04-13T13:45:20Z</time>
      </trkpt>
      <trkpt lat="51.414159955456853" lon="6.595823792740703">
        <ele>76.793548000000001</ele>
        <time>2022-04-13T13:45:24Z</time>
      </trkpt>
      <trkpt lat="51.414164397865534" lon="6.595545848831534">
        <ele>76.734289000000004</ele>
        <time>2022-04-13T13:45:27Z</time>
      </trkpt>
      <trkpt lat="51.414077980443835" lon="6.594645883888006">
        <ele>76.363016999999999</ele>
        <time>2022-04-13T13:45:46Z</time>
      </trkpt>
      <trkpt lat="51.414192393422127" lon="6.594571452587843">
        <ele>76.316818999999995</ele>
        <time>2022-04-13T13:45:52Z</time>
      </trkpt>
      <trkpt lat="51.414354583248496" lon="6.594460811465979">
        <ele>76.273598000000007</ele>
        <time>2022-04-13T13:45:56Z</time>
      </trkpt>
      <trkpt lat="51.414356846362352" lon="6.594406580552459">
        <ele>76.227936999999997</ele>
        <time>2022-04-13T13:46:00Z</time>
      </trkpt>
      <trkpt lat="51.414344860240817" lon="6.594330808147788">
        <ele>76.175299999999993</ele>
        <time>2022-04-13T13:46:02Z</time>
      </trkpt>
      <trkpt lat="51.414331030100584" lon="6.594147412106395">
        <ele>76.128591999999998</ele>
        <time>2022-04-13T13:46:05Z</time>
      </trkpt>
      <trkpt lat="51.414351901039481" lon="6.593948509544134">
        <ele>76.076395000000005</ele>
        <time>2022-04-13T13:46:08Z</time>
      </trkpt>
      <trkpt lat="51.414349470287561" lon="6.593663524836302">
        <ele>76.030055000000004</ele>
        <time>2022-04-13T13:46:10Z</time>
      </trkpt>
      <trkpt lat="51.414298256859183" lon="6.592474468052387">
        <ele>75.984391000000002</ele>
        <time>2022-04-13T13:46:12Z</time>
      </trkpt>
      <trkpt lat="51.414213767275214" lon="6.591011490672827">
        <ele>75.798714000000004</ele>
        <time>2022-04-13T13:46:20Z</time>
      </trkpt>
      <trkpt lat="51.414185436442494" lon="6.59012820571661">
        <ele>75.468074000000001</ele>
        <time>2022-04-13T13:46:45Z</time>
      </trkpt>
      <trkpt lat="51.414155932143331" lon="6.589229581877589">
        <ele>75.339789999999994</ele>
        <time>2022-04-13T13:47:03Z</time>
      </trkpt>
      <trkpt lat="51.414125002920628" lon="6.588667156174779">
        <ele>75.319416000000004</ele>
        <time>2022-04-13T13:47:13Z</time>
      </trkpt>
      <trkpt lat="51.414105473086238" lon="6.588322408497334">
        <ele>75.313147000000001</ele>
        <time>2022-04-13T13:47:15Z</time>
      </trkpt>
      <trkpt lat="51.414087703451514" lon="6.588170193135738">
        <ele>75.306308999999999</ele>
        <time>2022-04-13T13:47:16Z</time>
      </trkpt>
      <trkpt lat="51.414118381217122" lon="6.588074304163456">
        <ele>75.300528</ele>
        <time>2022-04-13T13:47:18Z</time>
      </trkpt>
      <trkpt lat="51.413951246067882" lon="6.584273362532258">
        <ele>75.429017000000002</ele>
        <time>2022-04-13T13:48:01Z</time>
      </trkpt>
      <trkpt lat="51.413892908021808" lon="6.583747984841466">
        <ele>75.474615999999997</ele>
        <time>2022-04-13T13:48:06Z</time>
      </trkpt>
      <trkpt lat="51.41390179283917" lon="6.583361579105258">
        <ele>75.489166999999995</ele>
        <time>2022-04-13T13:48:08Z</time>
      </trkpt>
      <trkpt lat="51.413880083709955" lon="6.583071062341332">
        <ele>75.451953000000003</ele>
        <time>2022-04-13T13:48:12Z</time>
      </trkpt>
      <trkpt lat="51.4138691034168" lon="6.582841062918305">
        <ele>75.431647999999996</ele>
        <time>2022-04-13T13:48:14Z</time>
      </trkpt>
      <trkpt lat="51.41376500017941" lon="6.581982001662254">
        <ele>75.284856000000005</ele>
        <time>2022-04-13T13:48:28Z</time>
      </trkpt>
      <trkpt lat="51.413750080391765" lon="6.581815620884299">
        <ele>75.266690999999994</ele>
        <time>2022-04-13T13:48:30Z</time>
      </trkpt>
      <trkpt lat="51.413708003237844" lon="6.581643959507346">
        <ele>75.244612000000004</ele>
        <time>2022-04-13T13:48:32Z</time>
      </trkpt>
      <trkpt lat="51.413690987974405" lon="6.581453019753099">
        <ele>75.222588000000002</ele>
        <time>2022-04-13T13:48:34Z</time>
      </trkpt>
      <trkpt lat="51.413633739575744" lon="6.581273647025228">
        <ele>75.201161999999997</ele>
        <time>2022-04-13T13:48:36Z</time>
      </trkpt>
      <trkpt lat="51.413589147850871" lon="6.581016490235925">
        <ele>75.182067000000004</ele>
        <time>2022-04-13T13:48:38Z</time>
      </trkpt>
      <trkpt lat="51.413517901673913" lon="6.58073921687901">
        <ele>75.162655000000001</ele>
        <time>2022-04-13T13:48:40Z</time>
      </trkpt>
      <trkpt lat="51.413461407646537" lon="6.580491196364164">
        <ele>75.144670000000005</ele>
        <time>2022-04-13T13:48:43Z</time>
      </trkpt>
      <trkpt lat="51.413467023521662" lon="6.580398073419929">
        <ele>75.127602999999993</ele>
        <time>2022-04-13T13:48:46Z</time>
      </trkpt>
      <trkpt lat="51.413449924439192" lon="6.580338310450316">
        <ele>75.109353999999996</ele>
        <time>2022-04-13T13:48:49Z</time>
      </trkpt>
      <trkpt lat="51.413488984107971" lon="6.58023496158421">
        <ele>75.095787000000001</ele>
        <time>2022-04-13T13:48:52Z</time>
      </trkpt>
      <trkpt lat="51.413159826770425" lon="6.579542616382241">
        <ele>75.076511999999994</ele>
        <time>2022-04-13T13:48:55Z</time>
      </trkpt>
      <trkpt lat="51.412850366905332" lon="6.577957682311535">
        <ele>75.060817999999998</ele>
        <time>2022-04-13T13:48:57Z</time>
      </trkpt>
      <trkpt lat="51.41192969866097" lon="6.574149113148451">
        <ele>75.045737000000003</ele>
        <time>2022-04-13T13:48:59Z</time>
      </trkpt>
      <trkpt lat="51.411509346216917" lon="6.572179449722171">
        <ele>29.25390625</ele>
      </trkpt>
      <trkpt lat="51.410836530849338" lon="6.569010838866234">
        <ele>33.453125</ele>
      </trkpt>
      <trkpt lat="51.410303693264723" lon="6.5664844494313">
        <ele>29.19140625</ele>
      </trkpt>
      <trkpt lat="51.410192046314478" lon="6.566013637930155">
        <ele>28.0390625</ele>
      </trkpt>
      <trkpt lat="51.410801997408271" lon="6.564796669408679">
        <ele>28.3046875</ele>
      </trkpt>
      <trkpt lat="51.411359813064337" lon="6.563795870169997">
        <ele>27.35546875</ele>
      </trkpt>
      <trkpt lat="51.411731718108058" lon="6.563142919912934">
        <ele>27</ele>
      </trkpt>
      <trkpt lat="51.4107262250036" lon="6.56213172711432">
        <ele>26.80859375</ele>
      </trkpt>
      <trkpt lat="51.410014685243368" lon="6.560813253745437">
        <ele>27.46875</ele>
      </trkpt>
      <trkpt lat="51.409250339493155" lon="6.559624951332808">
        <ele>27.40625</ele>
      </trkpt>
      <trkpt lat="51.409058142453432" lon="6.559198899194598">
        <ele>28.16015625</ele>
      </trkpt>
      <trkpt lat="51.409105751663446" lon="6.558423740789294">
        <ele>28.484375</ele>
      </trkpt>
      <trkpt lat="51.408816492184997" lon="6.556021235883236">
        <ele>26.00390625</ele>
      </trkpt>
      <trkpt lat="51.408476941287518" lon="6.554049896076322">
        <ele>26.3984375</ele>
      </trkpt>
      <trkpt lat="51.408084500581026" lon="6.552208727225661">
        <ele>26.94921875</ele>
      </trkpt>
      <trkpt lat="51.407555937767029" lon="6.550198327749968">
        <ele>27.75</ele>
      </trkpt>
      <trkpt lat="51.40778224915266" lon="6.548215169459581">
        <ele>28.046875</ele>
      </trkpt>
      <trkpt lat="51.408065306022763" lon="6.546574914827943">
        <ele>28.8203125</ele>
      </trkpt>
      <trkpt lat="51.408191956579685" lon="6.545583084225655">
        <ele>28.484375</ele>
      </trkpt>
      <trkpt lat="51.407910156995058" lon="6.544083645567298">
        <ele>28.47265625</ele>
      </trkpt>
      <trkpt lat="51.408544583246112" lon="6.54256509616971">
        <ele>28.9765625</ele>
      </trkpt>
      <trkpt lat="51.409423593431711" lon="6.541299512609839">
        <ele>27.4453125</ele>
      </trkpt>
      <trkpt lat="51.410112585872412" lon="6.539865871891379">
        <ele>26.44921875</ele>
      </trkpt>
      <trkpt lat="51.41117817722261" lon="6.538338270038366">
        <ele>30</ele>
      </trkpt>
      <trkpt lat="51.411897260695696" lon="6.537291035056114">
        <ele>30</ele>
      </trkpt>
      <trkpt lat="51.413129735738039" lon="6.536405151709914">
        <ele>29.65234375</ele>
      </trkpt>
      <trkpt lat="51.414199518039823" lon="6.535393623635173">
        <ele>30.02734375</ele>
      </trkpt>
      <trkpt lat="51.415212638676167" lon="6.534039191901684">
        <ele>28.24609375</ele>
      </trkpt>
      <trkpt lat="51.416011517867446" lon="6.532861283048987">
        <ele>28.63671875</ele>
      </trkpt>
      <trkpt lat="51.416853228583932" lon="6.533617917448282">
        <ele>27.9765625</ele>
      </trkpt>
      <trkpt lat="51.417662668973207" lon="6.533730067312717">
        <ele>28</ele>
      </trkpt>
      <trkpt lat="51.418820042163134" lon="6.533533846959472">
        <ele>27.00390625</ele>
      </trkpt>
      <trkpt lat="51.421669470146298" lon="6.533230254426599">
        <ele>27.05078125</ele>
      </trkpt>
      <trkpt lat="51.42274453304708" lon="6.532863797619939">
        <ele>26.0234375</ele>
      </trkpt>
      <trkpt lat="51.423046281561255" lon="6.533502666279674">
        <ele>26</ele>
      </trkpt>
      <trkpt lat="51.424092259258032" lon="6.532878717407584">
        <ele>26.390625</ele>
      </trkpt>
      <trkpt lat="51.425110995769501" lon="6.532212272286415">
        <ele>27.734375</ele>
      </trkpt>
      <trkpt lat="51.42613073810935" lon="6.531674908474088">
        <ele>28.95703125</ele>
      </trkpt>
      <trkpt lat="51.427122484892607" lon="6.531009050086141">
        <ele>29.8515625</ele>
      </trkpt>
      <trkpt lat="51.428758129477501" lon="6.529985703527927">
        <ele>27.671875</ele>
      </trkpt>
      <trkpt lat="51.429187199100852" lon="6.529718739911914">
        <ele>27.1640625</ele>
      </trkpt>
      <trkpt lat="51.430071908980608" lon="6.529141142964363">
        <ele>27.9453125</ele>
      </trkpt>
      <trkpt lat="51.43101604655385" lon="6.52925044298172">
        <ele>28.94921875</ele>
      </trkpt>
      <trkpt lat="51.431372025981545" lon="6.529379272833467">
        <ele>29.7890625</ele>
      </trkpt>
      <trkpt lat="51.431886088103056" lon="6.529626622796059">
        <ele>30.19140625</ele>
      </trkpt>
      <trkpt lat="51.431814758107066" lon="6.530789360404015">
        <ele>30.09375</ele>
      </trkpt>
      <trkpt lat="51.431720964610577" lon="6.530855828896165">
        <ele>30.0234375</ele>
      </trkpt>
      <trkpt lat="51.431700764223933" lon="6.531673399731517">
        <ele>31.203125</ele>
      </trkpt>
      <trkpt lat="51.431891033425927" lon="6.533518843352795">
        <ele>31.34375</ele>
      </trkpt>
      <trkpt lat="51.43131310120225" lon="6.533702909946442">
        <ele>30.20703125</ele>
      </trkpt>
      <trkpt lat="51.432125307619572" lon="6.535793440416455">
        <ele>31.07421875</ele>
      </trkpt>
      <trkpt lat="51.432228237390518" lon="6.536844950169325">
        <ele>29.9921875</ele>
      </trkpt>
      <trkpt lat="51.432256987318397" lon="6.537059443071485">
        <ele>30.171875</ele>
      </trkpt>
      <trkpt lat="51.432110136374831" lon="6.537234541028738">
        <ele>30.3984375</ele>
      </trkpt>
      <trkpt lat="51.432062610983849" lon="6.538009699434042">
        <ele>30.58984375</ele>
      </trkpt>
      <trkpt lat="51.432219268754125" lon="6.53903866186738">
        <ele>30.7265625</ele>
      </trkpt>
      <trkpt lat="51.432429989799857" lon="6.540087908506393">
        <ele>30.5390625</ele>
      </trkpt>
      <trkpt lat="51.43271254375577" lon="6.54167334549129">
        <ele>31.109375</ele>
      </trkpt>
      <trkpt lat="51.432977998629212" lon="6.542829126119614">
        <ele>31.03125</ele>
      </trkpt>
      <trkpt lat="51.433244962245226" lon="6.544156819581986">
        <ele>32.2734375</ele>
      </trkpt>
      <trkpt lat="51.433538245037198" lon="6.545419469475746">
        <ele>31.5078125</ele>
      </trkpt>
      <trkpt lat="51.433734633028507" lon="6.546361511573196">
        <ele>29.54296875</ele>
      </trkpt>
      <trkpt lat="51.434030262753367" lon="6.547903697937727">
        <ele>30.12109375</ele>
      </trkpt>
      <trkpt lat="51.434354307129979" lon="6.549617294222117">
        <ele>30.88671875</ele>
      </trkpt>
      <trkpt lat="51.434631161391735" lon="6.550514744594693">
        <ele>31.30859375</ele>
      </trkpt>
      <trkpt lat="51.434694277122617" lon="6.550527233630419">
        <ele>32.42578125</ele>
      </trkpt>
      <trkpt lat="51.433418970555067" lon="6.550582554191351">
        <ele>30.8515625</ele>
      </trkpt>
      <trkpt lat="51.432713717222214" lon="6.550023816525936">
        <ele>30.13671875</ele>
      </trkpt>
      <trkpt lat="51.432405430823565" lon="6.549686109647155">
        <ele>30.5078125</ele>
      </trkpt>
      <trkpt lat="51.431844094768167" lon="6.549153104424477">
        <ele>30.58984375</ele>
      </trkpt>
      <trkpt lat="51.431853985413909" lon="6.550357164815068">
        <ele>31.36328125</ele>
      </trkpt>
      <trkpt lat="51.43198843114078" lon="6.551415212452412">
        <ele>32.4921875</ele>
      </trkpt>
      <trkpt lat="51.431784331798553" lon="6.552824461832643">
        <ele>29.953125</ele>
      </trkpt>
      <trkpt lat="51.431578891351819" lon="6.554061630740762">
        <ele>29.1640625</ele>
      </trkpt>
      <trkpt lat="51.431318800896406" lon="6.555213974788785">
        <ele>29.05078125</ele>
      </trkpt>
      <trkpt lat="51.430986374616623" lon="6.556310495361686">
        <ele>30.2109375</ele>
      </trkpt>
      <trkpt lat="51.430902890861034" lon="6.556969229131937">
        <ele>74.287721000000005</ele>
        <time>2022-04-13T14:01:40Z</time>
      </trkpt>
      <trkpt lat="51.430779425427318" lon="6.558270351961255">
        <ele>74.299576000000002</ele>
        <time>2022-04-13T14:01:52Z</time>
      </trkpt>
      <trkpt lat="51.430449932813644" lon="6.56078165397048">
        <ele>74.318697</ele>
        <time>2022-04-13T14:02:10Z</time>
      </trkpt>
      <trkpt lat="51.431565312668681" lon="6.562496507540345">
        <ele>74.320704000000006</ele>
        <time>2022-04-13T14:02:12Z</time>
      </trkpt>
      <trkpt lat="51.431652568280697" lon="6.562903029844165">
        <ele>74.305072999999993</ele>
        <time>2022-04-13T14:02:14Z</time>
      </trkpt>
      <trkpt lat="51.431739572435617" lon="6.563725881278515">
        <ele>74.288574999999994</ele>
        <time>2022-04-13T14:02:16Z</time>
      </trkpt>
      <trkpt lat="51.431909054517746" lon="6.565037649124861">
        <ele>74.271630000000002</ele>
        <time>2022-04-13T14:02:18Z</time>
      </trkpt>
      <trkpt lat="51.431986335664988" lon="6.565667381510139">
        <ele>73.967237999999995</ele>
        <time>2022-04-13T14:02:52Z</time>
      </trkpt>
      <trkpt lat="51.43200502730906" lon="6.565978517755866">
        <ele>73.943726999999996</ele>
        <time>2022-04-13T14:02:54Z</time>
      </trkpt>
      <trkpt lat="51.432556640356779" lon="6.566475816071034">
        <ele>73.922962999999996</ele>
        <time>2022-04-13T14:02:56Z</time>
      </trkpt>
      <trkpt lat="51.432762248441577" lon="6.566606992855668">
        <ele>73.902009000000007</ele>
        <time>2022-04-13T14:02:59Z</time>
      </trkpt>
      <trkpt lat="51.43343330360949" lon="6.56747242435813">
        <ele>73.878398000000004</ele>
        <time>2022-04-13T14:03:00Z</time>
      </trkpt>
      <trkpt lat="51.434227237477899" lon="6.568491579964757">
        <ele>73.858367000000001</ele>
        <time>2022-04-13T14:03:02Z</time>
      </trkpt>
      <trkpt lat="51.434657899662852" lon="6.569694969803095">
        <ele>73.751902999999999</ele>
        <time>2022-04-13T14:06:03Z</time>
      </trkpt>
      <trkpt lat="51.43522946164012" lon="6.570748910307884">
        <ele>73.751902999999999</ele>
        <time>2022-04-13T14:06:36Z</time>
      </trkpt>
      <trkpt lat="51.435322416946292" lon="6.570999110117555">
        <ele>28.98828125</ele>
      </trkpt>
      <trkpt lat="51.435351585969329" lon="6.571304211392999">
        <ele>29.015625</ele>
      </trkpt>
      <trkpt lat="51.435405230149627" lon="6.571514010429382">
        <ele>29</ele>
      </trkpt>
      <trkpt lat="51.435484439134598" lon="6.571643929928541">
        <ele>29</ele>
      </trkpt>
      <trkpt lat="51.435615951195359" lon="6.571714002639055">
        <ele>29</ele>
      </trkpt>
      <trkpt lat="51.43584368750453" lon="6.571634626016021">
        <ele>29</ele>
      </trkpt>
      <trkpt lat="51.43618575297296" lon="6.571480818092823">
        <ele>29</ele>
      </trkpt>
      <trkpt lat="51.436552880331874" lon="6.571324160322547">
        <ele>29</ele>
      </trkpt>
      <trkpt lat="51.436798134818673" lon="6.571227349340916">
        <ele>29.08984375</ele>
      </trkpt>
      <trkpt lat="51.436915984377265" lon="6.571198767051101">
        <ele>29.2421875</ele>
      </trkpt>
      <trkpt lat="51.436989242210984" lon="6.571464389562607">
        <ele>29.0078125</ele>
      </trkpt>
      <trkpt lat="51.437335330992937" lon="6.571363974362612">
        <ele>29.13671875</ele>
      </trkpt>
      <trkpt lat="51.437094854190946" lon="6.568662067875266">
        <ele>29.8203125</ele>
      </trkpt>
      <trkpt lat="51.437775632366538" lon="6.568478085100651">
        <ele>30</ele>
      </trkpt>
      <trkpt lat="51.438022060319781" lon="6.568396529182792">
        <ele>30</ele>
      </trkpt>
      <trkpt lat="51.43818031065166" lon="6.568317236378789">
        <ele>30.03515625</ele>
      </trkpt>
      <trkpt lat="51.439416976645589" lon="6.568097211420536">
        <ele>29.77734375</ele>
      </trkpt>
      <trkpt lat="51.439594086259604" lon="6.568583361804485">
        <ele>29</ele>
      </trkpt>
      <trkpt lat="51.44043730571866" lon="6.569976853206754">
        <ele>30</ele>
      </trkpt>
      <trkpt lat="51.440738802775741" lon="6.569534623995423">
        <ele>30</ele>
      </trkpt>
      <trkpt lat="51.440897053107619" lon="6.569370506331325">
        <ele>30.01953125</ele>
      </trkpt>
      <trkpt lat="51.441271305084229" lon="6.569202532991767">
        <ele>30.10546875</ele>
      </trkpt>
      <trkpt lat="51.441461993381381" lon="6.569134891033173">
        <ele>30</ele>
      </trkpt>
      <trkpt lat="51.442009666934609" lon="6.56911225989461">
        <ele>29.96875</ele>
      </trkpt>
      <trkpt lat="51.44299034960568" lon="6.56903070397675">
        <ele>29.859375</ele>
      </trkpt>
      <trkpt lat="51.443613460287452" lon="6.568972701206803">
        <ele>29.05859375</ele>
      </trkpt>
      <trkpt lat="51.444384260103106" lon="6.568894246593118">
        <ele>29</ele>
      </trkpt>
      <trkpt lat="51.444542426615953" lon="6.568814953789115">
        <ele>29</ele>
      </trkpt>
      <trkpt lat="51.445286320522428" lon="6.567917671054602">
        <ele>30</ele>
      </trkpt>
      <trkpt lat="51.446184776723385" lon="6.566930785775185">
        <ele>30.90234375</ele>
      </trkpt>
      <trkpt lat="51.446630442515016" lon="6.567991012707353">
        <ele>30</ele>
      </trkpt>
      <trkpt lat="51.446902435272932" lon="6.56845604069531">
        <ele>30</ele>
      </trkpt>
      <trkpt lat="51.447019195184112" lon="6.568581769242883">
        <ele>30</ele>
      </trkpt>
      <trkpt lat="51.447202004492283" lon="6.56874630600214">
        <ele>30</ele>
      </trkpt>
      <trkpt lat="51.447437200695276" lon="6.568851079791784">
        <ele>30</ele>
      </trkpt>
      <trkpt lat="51.447577849030495" lon="6.568873878568411">
        <ele>30</ele>
      </trkpt>
      <trkpt lat="51.448440011590719" lon="6.568321846425533">
        <ele>30</ele>
      </trkpt>
      <trkpt lat="51.448962204158306" lon="6.569728078320622">
        <ele>30</ele>
      </trkpt>
      <trkpt lat="51.449486408382654" lon="6.571582993492484">
        <ele>30.453125</ele>
      </trkpt>
      <trkpt lat="51.449755048379302" lon="6.572639867663384">
        <ele>30</ele>
      </trkpt>
      <trkpt lat="51.449776757508516" lon="6.572675993666053">
        <ele>30</ele>
      </trkpt>
      <trkpt lat="51.449731243774295" lon="6.572742713615298">
        <ele>30</ele>
      </trkpt>
      <trkpt lat="51.449730154126883" lon="6.57281219959259">
        <ele>30</ele>
      </trkpt>
      <trkpt lat="51.449747253209352" lon="6.572871962562203">
        <ele>30.0078125</ele>
      </trkpt>
      <trkpt lat="51.449820678681135" lon="6.572925439104438">
        <ele>30.0546875</ele>
      </trkpt>
      <trkpt lat="51.449857139959931" lon="6.57290599308908">
        <ele>30.05078125</ele>
      </trkpt>
      <trkpt lat="51.449892343953252" lon="6.572786383330822">
        <ele>30</ele>
      </trkpt>
      <trkpt lat="51.450804127380252" lon="6.572627713903785">
        <ele>30</ele>
      </trkpt>
      <trkpt lat="51.450990289449692" lon="6.572668617591262">
        <ele>30</ele>
      </trkpt>
      <trkpt lat="51.451067151501775" lon="6.572683118283749">
        <ele>29.98828125</ele>
      </trkpt>
      <trkpt lat="51.451057679951191" lon="6.573146721348167">
        <ele>30</ele>
      </trkpt>
      <trkpt lat="51.451056255027652" lon="6.573632536455989">
        <ele>30</ele>
      </trkpt>
      <trkpt lat="51.451045610010624" lon="6.573995975777507">
        <ele>30</ele>
      </trkpt>
      <trkpt lat="51.45104393362999" lon="6.574573572725058">
        <ele>30</ele>
      </trkpt>
      <trkpt lat="51.45106153562665" lon="6.574902310967445">
        <ele>30</ele>
      </trkpt>
      <trkpt lat="51.451160944998264" lon="6.576069910079241">
        <ele>30</ele>
      </trkpt>
      <trkpt lat="51.451228922232985" lon="6.576555641368032">
        <ele>29.99609375</ele>
      </trkpt>
      <trkpt lat="51.451293127611279" lon="6.577285537496209">
        <ele>29.4921875</ele>
      </trkpt>
      <trkpt lat="51.451379461213946" lon="6.578015936538577">
        <ele>30</ele>
      </trkpt>
      <trkpt lat="51.451501585543156" lon="6.578549612313509">
        <ele>30</ele>
      </trkpt>
      <trkpt lat="51.451567886397243" lon="6.579012461006641">
        <ele>29.60546875</ele>
      </trkpt>
      <trkpt lat="51.451627733185887" lon="6.57965250313282">
        <ele>29</ele>
      </trkpt>
      <trkpt lat="51.451666625216603" lon="6.580002782866359">
        <ele>29</ele>
      </trkpt>
      <trkpt lat="51.451656064018607" lon="6.580535871908069">
        <ele>28.5625</ele>
      </trkpt>
      <trkpt lat="51.451695039868355" lon="6.581275574862957">
        <ele>28.375</ele>
      </trkpt>
      <trkpt lat="51.45169579423964" lon="6.58170715905726">
        <ele>28.3203125</ele>
      </trkpt>
      <trkpt lat="51.4516288228333" lon="6.582076884806156">
        <ele>28.01171875</ele>
      </trkpt>
      <trkpt lat="51.451424220576882" lon="6.582716507837176">
        <ele>27</ele>
      </trkpt>
      <trkpt lat="51.450893897563219" lon="6.582128182053566">
        <ele>27.3359375</ele>
      </trkpt>
      <trkpt lat="51.450820975005627" lon="6.582082416862249">
        <ele>27.53125</ele>
      </trkpt>
      <trkpt lat="51.450180932879448" lon="6.581714535132051">
        <ele>27.8515625</ele>
      </trkpt>
      <trkpt lat="51.449765106663108" lon="6.581390993669629">
        <ele>27.46484375</ele>
      </trkpt>
      <trkpt lat="51.449351627379656" lon="6.581013221293688">
        <ele>27.69140625</ele>
      </trkpt>
    </trkseg>
  </trk>

</gpx>